<?xml version="1.0" encoding="UTF-8" standalone="no" ?>
<gpx xmlns="http://www.topografix.com/GPX/1/1" xmlns:xsi="http://www.w3.org/2001/XMLSchema-instance" xsi:schemaLocation="http://www.topografix.com/GPX/1/1 http://www.topografix.com/GPX/1/1/gpx.xsd" version="1.1" creator="VisuGPX - https://www.visugpx.com">
  <metadata>
    <name>Col du Couard (Grandes Rousses)</name>
    <desc><![CDATA[Au départ de [b]la Villette[/b], une idée trouvée ici : [url]http://www.pascal-sombardier.com/2018/06/le-col-du-couard-2234-m.html#ob-comment-ob-comment-92795909[/url]
Attention s'il subsiste un névé dans la [b]draye des Renards[/b], chute interdite!
photos ici: [url]https://photos.app.goo.gl/7BwwsMHJHZH4B98A9[/url]
.
Autres Randos dans le Massif des Grandes Rousses ici: [url]https://www.visugpx.com/membres/87/grandes-rousses---arves/[/url]
]]></desc>
  </metadata>
  <wpt lat="45.16913" lon="6.10327">
    <ele>1474.4</ele>
    <name><![CDATA[les sagnes]]></name>
  </wpt>
  <wpt lat="45.19091" lon="6.12808">
    <ele>2189.5</ele>
  </wpt>
  <trk>
    <name><![CDATA[20190105173722-oXyUc]]></name>
    <trkseg>
      <trkpt lat="45.16856" lon="6.09482">
        <ele>1404.79</ele>
        <time>2018-07-01T07:46:33Z</time>
      </trkpt>
      <trkpt lat="45.16859" lon="6.09508">
        <ele>1403.77</ele>
        <time>2018-07-01T07:48:36Z</time>
      </trkpt>
      <trkpt lat="45.1687" lon="6.09529">
        <ele>1407.74</ele>
        <time>2018-07-01T07:48:56Z</time>
      </trkpt>
      <trkpt lat="45.16886" lon="6.09544">
        <ele>1406.46</ele>
        <time>2018-07-01T07:49:11Z</time>
      </trkpt>
      <trkpt lat="45.16897" lon="6.09567">
        <ele>1401.58</ele>
        <time>2018-07-01T07:49:28Z</time>
      </trkpt>
      <trkpt lat="45.16908" lon="6.09589">
        <ele>1403.62</ele>
        <time>2018-07-01T07:49:44Z</time>
      </trkpt>
      <trkpt lat="45.16908" lon="6.09615">
        <ele>1403.53</ele>
        <time>2018-07-01T07:50:02Z</time>
      </trkpt>
      <trkpt lat="45.16906" lon="6.09641">
        <ele>1399.95</ele>
        <time>2018-07-01T07:50:16Z</time>
      </trkpt>
      <trkpt lat="45.16896" lon="6.09664">
        <ele>1400.9</ele>
        <time>2018-07-01T07:50:37Z</time>
      </trkpt>
      <trkpt lat="45.16878" lon="6.09672">
        <ele>1406.34</ele>
        <time>2018-07-01T07:51:00Z</time>
      </trkpt>
      <trkpt lat="45.1686" lon="6.0967">
        <ele>1398.78</ele>
        <time>2018-07-01T07:51:29Z</time>
      </trkpt>
      <trkpt lat="45.1684" lon="6.09666">
        <ele>1395.78</ele>
        <time>2018-07-01T07:51:43Z</time>
      </trkpt>
      <trkpt lat="45.16854" lon="6.09683">
        <ele>1383.89</ele>
        <time>2018-07-01T07:52:27Z</time>
      </trkpt>
      <trkpt lat="45.16838" lon="6.09696">
        <ele>1381.72</ele>
        <time>2018-07-01T07:53:31Z</time>
      </trkpt>
      <trkpt lat="45.1682" lon="6.09705">
        <ele>1377.7</ele>
        <time>2018-07-01T07:54:05Z</time>
      </trkpt>
      <trkpt lat="45.16802" lon="6.09709">
        <ele>1382.54</ele>
        <time>2018-07-01T07:54:16Z</time>
      </trkpt>
      <trkpt lat="45.16783" lon="6.09716">
        <ele>1378.78</ele>
        <time>2018-07-01T07:54:33Z</time>
      </trkpt>
      <trkpt lat="45.16765" lon="6.09721">
        <ele>1372.75</ele>
        <time>2018-07-01T07:54:48Z</time>
      </trkpt>
      <trkpt lat="45.16746" lon="6.0972">
        <ele>1371.78</ele>
        <time>2018-07-01T07:55:02Z</time>
      </trkpt>
      <trkpt lat="45.16728" lon="6.09711">
        <ele>1361.87</ele>
        <time>2018-07-01T07:55:20Z</time>
      </trkpt>
      <trkpt lat="45.16731" lon="6.09737">
        <ele>1363.53</ele>
        <time>2018-07-01T07:55:40Z</time>
      </trkpt>
      <trkpt lat="45.16742" lon="6.09759">
        <ele>1371.49</ele>
        <time>2018-07-01T07:55:57Z</time>
      </trkpt>
      <trkpt lat="45.16747" lon="6.09784">
        <ele>1372.13</ele>
        <time>2018-07-01T07:56:19Z</time>
      </trkpt>
      <trkpt lat="45.1676" lon="6.09803">
        <ele>1377.75</ele>
        <time>2018-07-01T07:56:42Z</time>
      </trkpt>
      <trkpt lat="45.16771" lon="6.09825">
        <ele>1381.7</ele>
        <time>2018-07-01T07:56:57Z</time>
      </trkpt>
      <trkpt lat="45.16779" lon="6.09849">
        <ele>1376.94</ele>
        <time>2018-07-01T07:57:16Z</time>
      </trkpt>
      <trkpt lat="45.1679" lon="6.09872">
        <ele>1378.73</ele>
        <time>2018-07-01T07:57:35Z</time>
      </trkpt>
      <trkpt lat="45.16801" lon="6.09895">
        <ele>1376.55</ele>
        <time>2018-07-01T07:57:53Z</time>
      </trkpt>
      <trkpt lat="45.16809" lon="6.09921">
        <ele>1372.9</ele>
        <time>2018-07-01T07:58:16Z</time>
      </trkpt>
      <trkpt lat="45.16821" lon="6.0994">
        <ele>1374.55</ele>
        <time>2018-07-01T07:58:37Z</time>
      </trkpt>
      <trkpt lat="45.16833" lon="6.09959">
        <ele>1374.73</ele>
        <time>2018-07-01T07:58:53Z</time>
      </trkpt>
      <trkpt lat="45.16842" lon="6.09982">
        <ele>1375.98</ele>
        <time>2018-07-01T07:59:37Z</time>
      </trkpt>
      <trkpt lat="45.16852" lon="6.10005">
        <ele>1371.34</ele>
        <time>2018-07-01T08:00:05Z</time>
      </trkpt>
      <trkpt lat="45.16862" lon="6.10027">
        <ele>1375.93</ele>
        <time>2018-07-01T08:00:27Z</time>
      </trkpt>
      <trkpt lat="45.16875" lon="6.10046">
        <ele>1377.54</ele>
        <time>2018-07-01T08:00:45Z</time>
      </trkpt>
      <trkpt lat="45.16891" lon="6.10057">
        <ele>1379.34</ele>
        <time>2018-07-01T08:01:09Z</time>
      </trkpt>
      <trkpt lat="45.16908" lon="6.10068">
        <ele>1386.76</ele>
        <time>2018-07-01T08:01:39Z</time>
      </trkpt>
      <trkpt lat="45.16918" lon="6.1009">
        <ele>1391.77</ele>
        <time>2018-07-01T08:02:11Z</time>
      </trkpt>
      <trkpt lat="45.16924" lon="6.10114">
        <ele>1405.47</ele>
        <time>2018-07-01T08:02:42Z</time>
      </trkpt>
      <trkpt lat="45.16934" lon="6.10135">
        <ele>1406.49</ele>
        <time>2018-07-01T08:03:07Z</time>
      </trkpt>
      <trkpt lat="45.16937" lon="6.10161">
        <ele>1410.34</ele>
        <time>2018-07-01T08:03:37Z</time>
      </trkpt>
      <trkpt lat="45.16941" lon="6.10186">
        <ele>1422.13</ele>
        <time>2018-07-01T08:04:17Z</time>
      </trkpt>
      <trkpt lat="45.16922" lon="6.10181">
        <ele>1426.35</ele>
        <time>2018-07-01T08:05:24Z</time>
      </trkpt>
      <trkpt lat="45.16905" lon="6.10189">
        <ele>1429.7</ele>
        <time>2018-07-01T08:05:52Z</time>
      </trkpt>
      <trkpt lat="45.16898" lon="6.10213">
        <ele>1437.15</ele>
        <time>2018-07-01T08:06:28Z</time>
      </trkpt>
      <trkpt lat="45.16907" lon="6.10236">
        <ele>1440.73</ele>
        <time>2018-07-01T08:06:59Z</time>
      </trkpt>
      <trkpt lat="45.16913" lon="6.10261">
        <ele>1453.1</ele>
        <time>2018-07-01T08:07:34Z</time>
      </trkpt>
      <trkpt lat="45.16924" lon="6.10282">
        <ele>1452.74</ele>
        <time>2018-07-01T08:08:02Z</time>
      </trkpt>
      <trkpt lat="45.16919" lon="6.10307">
        <ele>1456.89</ele>
        <time>2018-07-01T08:08:32Z</time>
      </trkpt>
      <trkpt lat="45.16914" lon="6.10333">
        <ele>1461.74</ele>
        <time>2018-07-01T08:09:58Z</time>
      </trkpt>
      <trkpt lat="45.16926" lon="6.10354">
        <ele>1466.5</ele>
        <time>2018-07-01T08:10:17Z</time>
      </trkpt>
      <trkpt lat="45.16939" lon="6.10372">
        <ele>1465.74</ele>
        <time>2018-07-01T08:10:40Z</time>
      </trkpt>
      <trkpt lat="45.16954" lon="6.10385">
        <ele>1473.54</ele>
        <time>2018-07-01T08:11:10Z</time>
      </trkpt>
      <trkpt lat="45.16967" lon="6.10404">
        <ele>1482.73</ele>
        <time>2018-07-01T08:11:35Z</time>
      </trkpt>
      <trkpt lat="45.16952" lon="6.10419">
        <ele>1482.73</ele>
        <time>2018-07-01T08:12:06Z</time>
      </trkpt>
      <trkpt lat="45.16951" lon="6.10444">
        <ele>1497.92</ele>
        <time>2018-07-01T08:13:05Z</time>
      </trkpt>
      <trkpt lat="45.16961" lon="6.10465">
        <ele>1508.74</ele>
        <time>2018-07-01T08:13:54Z</time>
      </trkpt>
      <trkpt lat="45.16957" lon="6.10491">
        <ele>1514.74</ele>
        <time>2018-07-01T08:15:18Z</time>
      </trkpt>
      <trkpt lat="45.16976" lon="6.10492">
        <ele>1526.57</ele>
        <time>2018-07-01T08:15:51Z</time>
      </trkpt>
      <trkpt lat="45.16969" lon="6.10516">
        <ele>1531.5</ele>
        <time>2018-07-01T08:16:45Z</time>
      </trkpt>
      <trkpt lat="45.16986" lon="6.10525">
        <ele>1540.53</ele>
        <time>2018-07-01T08:17:38Z</time>
      </trkpt>
      <trkpt lat="45.16999" lon="6.10542">
        <ele>1546.75</ele>
        <time>2018-07-01T08:18:48Z</time>
      </trkpt>
      <trkpt lat="45.17017" lon="6.10533">
        <ele>1556.7</ele>
        <time>2018-07-01T08:19:30Z</time>
      </trkpt>
      <trkpt lat="45.17027" lon="6.10556">
        <ele>1561.56</ele>
        <time>2018-07-01T08:20:05Z</time>
      </trkpt>
      <trkpt lat="45.17026" lon="6.10581">
        <ele>1564.73</ele>
        <time>2018-07-01T08:20:57Z</time>
      </trkpt>
      <trkpt lat="45.17014" lon="6.10601">
        <ele>1575.92</ele>
        <time>2018-07-01T08:21:31Z</time>
      </trkpt>
      <trkpt lat="45.17018" lon="6.10627">
        <ele>1582.75</ele>
        <time>2018-07-01T08:23:05Z</time>
      </trkpt>
      <trkpt lat="45.17032" lon="6.10643">
        <ele>1593.59</ele>
        <time>2018-07-01T08:23:43Z</time>
      </trkpt>
      <trkpt lat="45.17037" lon="6.10669">
        <ele>1596.33</ele>
        <time>2018-07-01T08:24:07Z</time>
      </trkpt>
      <trkpt lat="45.17049" lon="6.10689">
        <ele>1597.94</ele>
        <time>2018-07-01T08:24:34Z</time>
      </trkpt>
      <trkpt lat="45.17061" lon="6.10709">
        <ele>1598.1</ele>
        <time>2018-07-01T08:25:01Z</time>
      </trkpt>
      <trkpt lat="45.1707" lon="6.10733">
        <ele>1610.78</ele>
        <time>2018-07-01T08:25:40Z</time>
      </trkpt>
      <trkpt lat="45.17081" lon="6.10753">
        <ele>1614.91</ele>
        <time>2018-07-01T08:26:12Z</time>
      </trkpt>
      <trkpt lat="45.17092" lon="6.10775">
        <ele>1609.75</ele>
        <time>2018-07-01T08:26:32Z</time>
      </trkpt>
      <trkpt lat="45.17102" lon="6.10796">
        <ele>1616.69</ele>
        <time>2018-07-01T08:27:00Z</time>
      </trkpt>
      <trkpt lat="45.17116" lon="6.10814">
        <ele>1616.73</ele>
        <time>2018-07-01T08:27:26Z</time>
      </trkpt>
      <trkpt lat="45.17127" lon="6.10837">
        <ele>1613.95</ele>
        <time>2018-07-01T08:27:52Z</time>
      </trkpt>
      <trkpt lat="45.17139" lon="6.10859">
        <ele>1614.14</ele>
        <time>2018-07-01T08:28:23Z</time>
      </trkpt>
      <trkpt lat="45.17153" lon="6.10877">
        <ele>1625.53</ele>
        <time>2018-07-01T08:28:43Z</time>
      </trkpt>
      <trkpt lat="45.17168" lon="6.10895">
        <ele>1624.94</ele>
        <time>2018-07-01T08:29:07Z</time>
      </trkpt>
      <trkpt lat="45.17149" lon="6.10899">
        <ele>1633.33</ele>
        <time>2018-07-01T08:30:53Z</time>
      </trkpt>
      <trkpt lat="45.17131" lon="6.10888">
        <ele>1632.75</ele>
        <time>2018-07-01T08:31:12Z</time>
      </trkpt>
      <trkpt lat="45.17135" lon="6.10913">
        <ele>1637.53</ele>
        <time>2018-07-01T08:32:00Z</time>
      </trkpt>
      <trkpt lat="45.17147" lon="6.10933">
        <ele>1641.7</ele>
        <time>2018-07-01T08:32:23Z</time>
      </trkpt>
      <trkpt lat="45.17164" lon="6.10945">
        <ele>1651.69</ele>
        <time>2018-07-01T08:33:09Z</time>
      </trkpt>
      <trkpt lat="45.17166" lon="6.10971">
        <ele>1655.79</ele>
        <time>2018-07-01T08:33:36Z</time>
      </trkpt>
      <trkpt lat="45.17181" lon="6.10992">
        <ele>1670.32</ele>
        <time>2018-07-01T08:34:13Z</time>
      </trkpt>
      <trkpt lat="45.17161" lon="6.10996">
        <ele>1670.93</ele>
        <time>2018-07-01T08:34:46Z</time>
      </trkpt>
      <trkpt lat="45.17143" lon="6.10993">
        <ele>1671.14</ele>
        <time>2018-07-01T08:35:03Z</time>
      </trkpt>
      <trkpt lat="45.17144" lon="6.11018">
        <ele>1691.08</ele>
        <time>2018-07-01T08:36:41Z</time>
      </trkpt>
      <trkpt lat="45.17147" lon="6.11044">
        <ele>1681.93</ele>
        <time>2018-07-01T08:41:25Z</time>
      </trkpt>
      <trkpt lat="45.17157" lon="6.11065">
        <ele>1679.97</ele>
        <time>2018-07-01T08:42:06Z</time>
      </trkpt>
      <trkpt lat="45.17167" lon="6.11087">
        <ele>1688.93</ele>
        <time>2018-07-01T08:43:05Z</time>
      </trkpt>
      <trkpt lat="45.17173" lon="6.11111">
        <ele>1694.7</ele>
        <time>2018-07-01T08:43:46Z</time>
      </trkpt>
      <trkpt lat="45.17182" lon="6.11134">
        <ele>1698.91</ele>
        <time>2018-07-01T08:44:15Z</time>
      </trkpt>
      <trkpt lat="45.17189" lon="6.11158">
        <ele>1699.34</ele>
        <time>2018-07-01T08:44:54Z</time>
      </trkpt>
      <trkpt lat="45.17194" lon="6.11183">
        <ele>1710.65</ele>
        <time>2018-07-01T08:45:41Z</time>
      </trkpt>
      <trkpt lat="45.17177" lon="6.11193">
        <ele>1722.48</ele>
        <time>2018-07-01T08:46:28Z</time>
      </trkpt>
      <trkpt lat="45.17159" lon="6.112">
        <ele>1719.16</ele>
        <time>2018-07-01T08:46:57Z</time>
      </trkpt>
      <trkpt lat="45.17166" lon="6.11224">
        <ele>1722.78</ele>
        <time>2018-07-01T08:47:28Z</time>
      </trkpt>
      <trkpt lat="45.17167" lon="6.11249">
        <ele>1722.53</ele>
        <time>2018-07-01T08:47:54Z</time>
      </trkpt>
      <trkpt lat="45.17162" lon="6.11275">
        <ele>1735.73</ele>
        <time>2018-07-01T08:49:09Z</time>
      </trkpt>
      <trkpt lat="45.17147" lon="6.11289">
        <ele>1731.74</ele>
        <time>2018-07-01T08:49:34Z</time>
      </trkpt>
      <trkpt lat="45.17149" lon="6.11314">
        <ele>1742.89</ele>
        <time>2018-07-01T08:50:09Z</time>
      </trkpt>
      <trkpt lat="45.17162" lon="6.11334">
        <ele>1744.66</ele>
        <time>2018-07-01T08:51:39Z</time>
      </trkpt>
      <trkpt lat="45.17175" lon="6.11353">
        <ele>1753.57</ele>
        <time>2018-07-01T08:52:12Z</time>
      </trkpt>
      <trkpt lat="45.17188" lon="6.1137">
        <ele>1750.54</ele>
        <time>2018-07-01T08:52:34Z</time>
      </trkpt>
      <trkpt lat="45.17197" lon="6.11393">
        <ele>1756.74</ele>
        <time>2018-07-01T08:52:59Z</time>
      </trkpt>
      <trkpt lat="45.1721" lon="6.11412">
        <ele>1755.75</ele>
        <time>2018-07-01T08:53:39Z</time>
      </trkpt>
      <trkpt lat="45.17222" lon="6.11432">
        <ele>1762.85</ele>
        <time>2018-07-01T08:54:13Z</time>
      </trkpt>
      <trkpt lat="45.17232" lon="6.11455">
        <ele>1769.95</ele>
        <time>2018-07-01T08:54:46Z</time>
      </trkpt>
      <trkpt lat="45.17246" lon="6.11473">
        <ele>1772.74</ele>
        <time>2018-07-01T08:55:59Z</time>
      </trkpt>
      <trkpt lat="45.1726" lon="6.11489">
        <ele>1777.97</ele>
        <time>2018-07-01T08:57:25Z</time>
      </trkpt>
      <trkpt lat="45.17274" lon="6.11506">
        <ele>1790.94</ele>
        <time>2018-07-01T08:58:25Z</time>
      </trkpt>
      <trkpt lat="45.1729" lon="6.1152">
        <ele>1800.58</ele>
        <time>2018-07-01T09:00:25Z</time>
      </trkpt>
      <trkpt lat="45.17289" lon="6.11545">
        <ele>1814.34</ele>
        <time>2018-07-01T09:01:35Z</time>
      </trkpt>
      <trkpt lat="45.17299" lon="6.11569">
        <ele>1822.94</ele>
        <time>2018-07-01T09:02:56Z</time>
      </trkpt>
      <trkpt lat="45.17313" lon="6.11588">
        <ele>1827.93</ele>
        <time>2018-07-01T09:03:32Z</time>
      </trkpt>
      <trkpt lat="45.17326" lon="6.11607">
        <ele>1826.73</ele>
        <time>2018-07-01T09:04:08Z</time>
      </trkpt>
      <trkpt lat="45.17339" lon="6.11626">
        <ele>1824.78</ele>
        <time>2018-07-01T09:04:19Z</time>
      </trkpt>
      <trkpt lat="45.1734" lon="6.11651">
        <ele>1825.75</ele>
        <time>2018-07-01T09:04:43Z</time>
      </trkpt>
      <trkpt lat="45.17342" lon="6.11678">
        <ele>1829.58</ele>
        <time>2018-07-01T09:05:04Z</time>
      </trkpt>
      <trkpt lat="45.1735" lon="6.117">
        <ele>1844.73</ele>
        <time>2018-07-01T09:05:53Z</time>
      </trkpt>
      <trkpt lat="45.17353" lon="6.11727">
        <ele>1839.95</ele>
        <time>2018-07-01T09:06:10Z</time>
      </trkpt>
      <trkpt lat="45.17352" lon="6.11754">
        <ele>1839.52</ele>
        <time>2018-07-01T09:06:31Z</time>
      </trkpt>
      <trkpt lat="45.17357" lon="6.11779">
        <ele>1836.33</ele>
        <time>2018-07-01T09:07:00Z</time>
      </trkpt>
      <trkpt lat="45.17359" lon="6.11805">
        <ele>1841.74</ele>
        <time>2018-07-01T09:07:48Z</time>
      </trkpt>
      <trkpt lat="45.17357" lon="6.1183">
        <ele>1842.5</ele>
        <time>2018-07-01T09:08:10Z</time>
      </trkpt>
      <trkpt lat="45.1736" lon="6.11856">
        <ele>1841.54</ele>
        <time>2018-07-01T09:08:31Z</time>
      </trkpt>
      <trkpt lat="45.17366" lon="6.11881">
        <ele>1841.71</ele>
        <time>2018-07-01T09:08:53Z</time>
      </trkpt>
      <trkpt lat="45.17365" lon="6.11907">
        <ele>1843.74</ele>
        <time>2018-07-01T09:09:14Z</time>
      </trkpt>
      <trkpt lat="45.1737" lon="6.11931">
        <ele>1845.74</ele>
        <time>2018-07-01T09:09:44Z</time>
      </trkpt>
      <trkpt lat="45.17387" lon="6.11943">
        <ele>1848.58</ele>
        <time>2018-07-01T09:10:41Z</time>
      </trkpt>
      <trkpt lat="45.17391" lon="6.11968">
        <ele>1852.53</ele>
        <time>2018-07-01T09:11:37Z</time>
      </trkpt>
      <trkpt lat="45.17402" lon="6.11989">
        <ele>1850.13</ele>
        <time>2018-07-01T09:12:24Z</time>
      </trkpt>
      <trkpt lat="45.17415" lon="6.12007">
        <ele>1849.74</ele>
        <time>2018-07-01T09:12:47Z</time>
      </trkpt>
      <trkpt lat="45.1743" lon="6.1202">
        <ele>1850.7</ele>
        <time>2018-07-01T09:13:39Z</time>
      </trkpt>
      <trkpt lat="45.17437" lon="6.12044">
        <ele>1857.76</ele>
        <time>2018-07-01T09:14:14Z</time>
      </trkpt>
      <trkpt lat="45.17454" lon="6.12054">
        <ele>1854.53</ele>
        <time>2018-07-01T09:14:37Z</time>
      </trkpt>
      <trkpt lat="45.17462" lon="6.12077">
        <ele>1877.76</ele>
        <time>2018-07-01T09:15:25Z</time>
      </trkpt>
      <trkpt lat="45.17472" lon="6.12098">
        <ele>1879.74</ele>
        <time>2018-07-01T09:16:03Z</time>
      </trkpt>
      <trkpt lat="45.17486" lon="6.12115">
        <ele>1880.58</ele>
        <time>2018-07-01T09:16:35Z</time>
      </trkpt>
      <trkpt lat="45.17499" lon="6.12133">
        <ele>1878.55</ele>
        <time>2018-07-01T09:17:08Z</time>
      </trkpt>
      <trkpt lat="45.17502" lon="6.12159">
        <ele>1885.12</ele>
        <time>2018-07-01T09:17:47Z</time>
      </trkpt>
      <trkpt lat="45.17507" lon="6.12185">
        <ele>1886.33</ele>
        <time>2018-07-01T09:18:13Z</time>
      </trkpt>
      <trkpt lat="45.17519" lon="6.12205">
        <ele>1891.5</ele>
        <time>2018-07-01T09:19:11Z</time>
      </trkpt>
      <trkpt lat="45.17509" lon="6.12226">
        <ele>1890.97</ele>
        <time>2018-07-01T09:19:50Z</time>
      </trkpt>
      <trkpt lat="45.17507" lon="6.12252">
        <ele>1894.78</ele>
        <time>2018-07-01T09:20:24Z</time>
      </trkpt>
      <trkpt lat="45.17521" lon="6.12269">
        <ele>1902.57</ele>
        <time>2018-07-01T09:20:54Z</time>
      </trkpt>
      <trkpt lat="45.17513" lon="6.12295">
        <ele>1909.95</ele>
        <time>2018-07-01T09:22:37Z</time>
      </trkpt>
      <trkpt lat="45.17524" lon="6.12316">
        <ele>1926.83</ele>
        <time>2018-07-01T09:26:28Z</time>
      </trkpt>
      <trkpt lat="45.1753" lon="6.12342">
        <ele>1922.93</ele>
        <time>2018-07-01T09:27:32Z</time>
      </trkpt>
      <trkpt lat="45.17519" lon="6.12365">
        <ele>1935.94</ele>
        <time>2018-07-01T09:30:47Z</time>
      </trkpt>
      <trkpt lat="45.17502" lon="6.12371">
        <ele>1957.58</ele>
        <time>2018-07-01T09:33:11Z</time>
      </trkpt>
      <trkpt lat="45.17515" lon="6.12389">
        <ele>1971.58</ele>
        <time>2018-07-01T09:35:13Z</time>
      </trkpt>
      <trkpt lat="45.17533" lon="6.12396">
        <ele>1986.5</ele>
        <time>2018-07-01T09:36:09Z</time>
      </trkpt>
      <trkpt lat="45.1755" lon="6.12405">
        <ele>1997.9</ele>
        <time>2018-07-01T09:39:33Z</time>
      </trkpt>
      <trkpt lat="45.17565" lon="6.12421">
        <ele>1999.51</ele>
        <time>2018-07-01T09:40:51Z</time>
      </trkpt>
      <trkpt lat="45.17583" lon="6.12426">
        <ele>2021.74</ele>
        <time>2018-07-01T09:43:25Z</time>
      </trkpt>
      <trkpt lat="45.17603" lon="6.12419">
        <ele>2033.34</ele>
        <time>2018-07-01T09:45:30Z</time>
      </trkpt>
      <trkpt lat="45.17617" lon="6.12436">
        <ele>2035.95</ele>
        <time>2018-07-01T09:46:27Z</time>
      </trkpt>
      <trkpt lat="45.17601" lon="6.1245">
        <ele>2048.86</ele>
        <time>2018-07-01T09:48:14Z</time>
      </trkpt>
      <trkpt lat="45.17607" lon="6.12475">
        <ele>2059.73</ele>
        <time>2018-07-01T09:51:50Z</time>
      </trkpt>
      <trkpt lat="45.17591" lon="6.12488">
        <ele>2072.58</ele>
        <time>2018-07-01T09:53:01Z</time>
      </trkpt>
      <trkpt lat="45.17581" lon="6.12511">
        <ele>2090.74</ele>
        <time>2018-07-01T09:55:58Z</time>
      </trkpt>
      <trkpt lat="45.17598" lon="6.12521">
        <ele>2100.94</ele>
        <time>2018-07-01T09:56:46Z</time>
      </trkpt>
      <trkpt lat="45.17604" lon="6.12547">
        <ele>2112.73</ele>
        <time>2018-07-01T09:59:35Z</time>
      </trkpt>
      <trkpt lat="45.17615" lon="6.12567">
        <ele>2117.61</ele>
        <time>2018-07-01T10:07:10Z</time>
      </trkpt>
      <trkpt lat="45.1762" lon="6.12592">
        <ele>2126.58</ele>
        <time>2018-07-01T10:07:50Z</time>
      </trkpt>
      <trkpt lat="45.17633" lon="6.1261">
        <ele>2131.94</ele>
        <time>2018-07-01T10:08:41Z</time>
      </trkpt>
      <trkpt lat="45.17648" lon="6.12628">
        <ele>2129.58</ele>
        <time>2018-07-01T10:09:13Z</time>
      </trkpt>
      <trkpt lat="45.17665" lon="6.12636">
        <ele>2133.9</ele>
        <time>2018-07-01T10:09:41Z</time>
      </trkpt>
      <trkpt lat="45.1768" lon="6.12653">
        <ele>2132.94</ele>
        <time>2018-07-01T10:10:18Z</time>
      </trkpt>
      <trkpt lat="45.17676" lon="6.12678">
        <ele>2148.74</ele>
        <time>2018-07-01T10:11:59Z</time>
      </trkpt>
      <trkpt lat="45.17676" lon="6.12704">
        <ele>2148.98</ele>
        <time>2018-07-01T10:12:58Z</time>
      </trkpt>
      <trkpt lat="45.17669" lon="6.12728">
        <ele>2159.74</ele>
        <time>2018-07-01T10:13:40Z</time>
      </trkpt>
      <trkpt lat="45.1765" lon="6.12729">
        <ele>2155.94</ele>
        <time>2018-07-01T10:14:08Z</time>
      </trkpt>
      <trkpt lat="45.17632" lon="6.12739">
        <ele>2155.82</ele>
        <time>2018-07-01T10:14:30Z</time>
      </trkpt>
      <trkpt lat="45.17614" lon="6.12738">
        <ele>2162.97</ele>
        <time>2018-07-01T10:15:12Z</time>
      </trkpt>
      <trkpt lat="45.17596" lon="6.12738">
        <ele>2166.56</ele>
        <time>2018-07-01T10:15:40Z</time>
      </trkpt>
      <trkpt lat="45.17601" lon="6.12763">
        <ele>2175.74</ele>
        <time>2018-07-01T10:16:27Z</time>
      </trkpt>
      <trkpt lat="45.17607" lon="6.12788">
        <ele>2179.89</ele>
        <time>2018-07-01T10:17:24Z</time>
      </trkpt>
      <trkpt lat="45.1759" lon="6.12797">
        <ele>2186.42</ele>
        <time>2018-07-01T10:18:47Z</time>
      </trkpt>
      <trkpt lat="45.17576" lon="6.12816">
        <ele>2190.14</ele>
        <time>2018-07-01T10:19:17Z</time>
      </trkpt>
      <trkpt lat="45.17565" lon="6.12837">
        <ele>2189.74</ele>
        <time>2018-07-01T10:19:42Z</time>
      </trkpt>
      <trkpt lat="45.1757" lon="6.12862">
        <ele>2181.55</ele>
        <time>2018-07-01T10:20:10Z</time>
      </trkpt>
      <trkpt lat="45.1756" lon="6.12841">
        <ele>2172.93</ele>
        <time>2018-07-01T11:19:36Z</time>
      </trkpt>
      <trkpt lat="45.17562" lon="6.12816">
        <ele>2180.73</ele>
        <time>2018-07-01T11:20:02Z</time>
      </trkpt>
      <trkpt lat="45.17579" lon="6.12808">
        <ele>2180.75</ele>
        <time>2018-07-01T11:20:45Z</time>
      </trkpt>
      <trkpt lat="45.17592" lon="6.12825">
        <ele>2174.94</ele>
        <time>2018-07-01T11:21:07Z</time>
      </trkpt>
      <trkpt lat="45.17607" lon="6.12841">
        <ele>2169.53</ele>
        <time>2018-07-01T11:21:36Z</time>
      </trkpt>
      <trkpt lat="45.17625" lon="6.12849">
        <ele>2175.35</ele>
        <time>2018-07-01T11:22:01Z</time>
      </trkpt>
      <trkpt lat="45.17643" lon="6.12847">
        <ele>2194.71</ele>
        <time>2018-07-01T11:23:37Z</time>
      </trkpt>
      <trkpt lat="45.17658" lon="6.12864">
        <ele>2194.34</ele>
        <time>2018-07-01T11:24:00Z</time>
      </trkpt>
      <trkpt lat="45.1767" lon="6.12883">
        <ele>2188.31</ele>
        <time>2018-07-01T11:24:17Z</time>
      </trkpt>
      <trkpt lat="45.17683" lon="6.12901">
        <ele>2184.98</ele>
        <time>2018-07-01T11:24:37Z</time>
      </trkpt>
      <trkpt lat="45.17699" lon="6.12915">
        <ele>2182.75</ele>
        <time>2018-07-01T11:24:56Z</time>
      </trkpt>
      <trkpt lat="45.17718" lon="6.1291">
        <ele>2185.73</ele>
        <time>2018-07-01T11:25:20Z</time>
      </trkpt>
      <trkpt lat="45.17736" lon="6.12905">
        <ele>2193.35</ele>
        <time>2018-07-01T11:25:44Z</time>
      </trkpt>
      <trkpt lat="45.17754" lon="6.12896">
        <ele>2201.93</ele>
        <time>2018-07-01T11:27:16Z</time>
      </trkpt>
      <trkpt lat="45.17772" lon="6.12902">
        <ele>2208.74</ele>
        <time>2018-07-01T11:28:10Z</time>
      </trkpt>
      <trkpt lat="45.17788" lon="6.12913">
        <ele>2206.57</ele>
        <time>2018-07-01T11:28:44Z</time>
      </trkpt>
      <trkpt lat="45.17805" lon="6.12926">
        <ele>2215.53</ele>
        <time>2018-07-01T11:29:05Z</time>
      </trkpt>
      <trkpt lat="45.17818" lon="6.12944">
        <ele>2214.99</ele>
        <time>2018-07-01T11:29:33Z</time>
      </trkpt>
      <trkpt lat="45.17827" lon="6.12968">
        <ele>2212.93</ele>
        <time>2018-07-01T11:29:54Z</time>
      </trkpt>
      <trkpt lat="45.17822" lon="6.12993">
        <ele>2210.7</ele>
        <time>2018-07-01T11:30:32Z</time>
      </trkpt>
      <trkpt lat="45.17837" lon="6.13006">
        <ele>2222.54</ele>
        <time>2018-07-01T11:31:07Z</time>
      </trkpt>
      <trkpt lat="45.17855" lon="6.13011">
        <ele>2228.57</ele>
        <time>2018-07-01T11:31:37Z</time>
      </trkpt>
      <trkpt lat="45.1786" lon="6.13036">
        <ele>2230.74</ele>
        <time>2018-07-01T11:32:03Z</time>
      </trkpt>
      <trkpt lat="45.17858" lon="6.13063">
        <ele>2234.94</ele>
        <time>2018-07-01T11:33:09Z</time>
      </trkpt>
      <trkpt lat="45.17865" lon="6.13087">
        <ele>2236.34</ele>
        <time>2018-07-01T11:33:33Z</time>
      </trkpt>
      <trkpt lat="45.1787" lon="6.13112">
        <ele>2234.74</ele>
        <time>2018-07-01T11:33:53Z</time>
      </trkpt>
      <trkpt lat="45.17859" lon="6.13133">
        <ele>2231.54</ele>
        <time>2018-07-01T11:34:43Z</time>
      </trkpt>
      <trkpt lat="45.17842" lon="6.13147">
        <ele>2233.94</ele>
        <time>2018-07-01T11:35:03Z</time>
      </trkpt>
      <trkpt lat="45.17826" lon="6.13161">
        <ele>2228.7</ele>
        <time>2018-07-01T11:35:23Z</time>
      </trkpt>
      <trkpt lat="45.17814" lon="6.13182">
        <ele>2226.93</ele>
        <time>2018-07-01T11:35:41Z</time>
      </trkpt>
      <trkpt lat="45.17802" lon="6.13204">
        <ele>2230.74</ele>
        <time>2018-07-01T11:36:09Z</time>
      </trkpt>
      <trkpt lat="45.17787" lon="6.1322">
        <ele>2235.78</ele>
        <time>2018-07-01T11:37:22Z</time>
      </trkpt>
      <trkpt lat="45.17775" lon="6.1324">
        <ele>2236.58</ele>
        <time>2018-07-01T11:37:50Z</time>
      </trkpt>
      <trkpt lat="45.17764" lon="6.13262">
        <ele>2231.74</ele>
        <time>2018-07-01T11:38:08Z</time>
      </trkpt>
      <trkpt lat="45.17752" lon="6.13281">
        <ele>2226.75</ele>
        <time>2018-07-01T11:38:22Z</time>
      </trkpt>
      <trkpt lat="45.17765" lon="6.13263">
        <ele>2236.01</ele>
        <time>2018-07-01T11:41:56Z</time>
      </trkpt>
      <trkpt lat="45.1778" lon="6.13249">
        <ele>2237.68</ele>
        <time>2018-07-01T11:42:15Z</time>
      </trkpt>
      <trkpt lat="45.17794" lon="6.13232">
        <ele>2244.9</ele>
        <time>2018-07-01T11:42:36Z</time>
      </trkpt>
      <trkpt lat="45.17812" lon="6.13223">
        <ele>2236.77</ele>
        <time>2018-07-01T11:42:57Z</time>
      </trkpt>
      <trkpt lat="45.17824" lon="6.13202">
        <ele>2234.54</ele>
        <time>2018-07-01T11:43:16Z</time>
      </trkpt>
      <trkpt lat="45.17838" lon="6.13184">
        <ele>2233.92</ele>
        <time>2018-07-01T11:43:35Z</time>
      </trkpt>
      <trkpt lat="45.17852" lon="6.13169">
        <ele>2225.8</ele>
        <time>2018-07-01T11:43:52Z</time>
      </trkpt>
      <trkpt lat="45.17868" lon="6.13157">
        <ele>2229.53</ele>
        <time>2018-07-01T11:44:07Z</time>
      </trkpt>
      <trkpt lat="45.17885" lon="6.13146">
        <ele>2232.1</ele>
        <time>2018-07-01T11:44:22Z</time>
      </trkpt>
      <trkpt lat="45.17893" lon="6.13122">
        <ele>2234.53</ele>
        <time>2018-07-01T11:44:45Z</time>
      </trkpt>
      <trkpt lat="45.17911" lon="6.1312">
        <ele>2231.87</ele>
        <time>2018-07-01T11:45:04Z</time>
      </trkpt>
      <trkpt lat="45.17928" lon="6.1311">
        <ele>2237.75</ele>
        <time>2018-07-01T11:45:31Z</time>
      </trkpt>
      <trkpt lat="45.17945" lon="6.13095">
        <ele>2237.55</ele>
        <time>2018-07-01T11:46:05Z</time>
      </trkpt>
      <trkpt lat="45.17961" lon="6.13086">
        <ele>2238.75</ele>
        <time>2018-07-01T11:46:26Z</time>
      </trkpt>
      <trkpt lat="45.17979" lon="6.13095">
        <ele>2242.55</ele>
        <time>2018-07-01T11:47:16Z</time>
      </trkpt>
      <trkpt lat="45.17997" lon="6.13097">
        <ele>2244.75</ele>
        <time>2018-07-01T11:47:31Z</time>
      </trkpt>
      <trkpt lat="45.18016" lon="6.13102">
        <ele>2248.53</ele>
        <time>2018-07-01T11:47:51Z</time>
      </trkpt>
      <trkpt lat="45.18033" lon="6.13115">
        <ele>2251.37</ele>
        <time>2018-07-01T11:48:08Z</time>
      </trkpt>
      <trkpt lat="45.1805" lon="6.13129">
        <ele>2251.73</ele>
        <time>2018-07-01T11:48:34Z</time>
      </trkpt>
      <trkpt lat="45.18068" lon="6.13137">
        <ele>2252.58</ele>
        <time>2018-07-01T11:48:51Z</time>
      </trkpt>
      <trkpt lat="45.18081" lon="6.13156">
        <ele>2251.82</ele>
        <time>2018-07-01T11:49:10Z</time>
      </trkpt>
      <trkpt lat="45.18099" lon="6.13159">
        <ele>2252.53</ele>
        <time>2018-07-01T11:49:30Z</time>
      </trkpt>
      <trkpt lat="45.18117" lon="6.13165">
        <ele>2259.51</ele>
        <time>2018-07-01T11:50:00Z</time>
      </trkpt>
      <trkpt lat="45.18135" lon="6.13165">
        <ele>2264.34</ele>
        <time>2018-07-01T11:50:23Z</time>
      </trkpt>
      <trkpt lat="45.18153" lon="6.13168">
        <ele>2264.77</ele>
        <time>2018-07-01T11:50:48Z</time>
      </trkpt>
      <trkpt lat="45.18172" lon="6.13171">
        <ele>2269.93</ele>
        <time>2018-07-01T11:51:24Z</time>
      </trkpt>
      <trkpt lat="45.1819" lon="6.13175">
        <ele>2271.51</ele>
        <time>2018-07-01T11:52:03Z</time>
      </trkpt>
      <trkpt lat="45.18208" lon="6.13183">
        <ele>2274.78</ele>
        <time>2018-07-01T11:52:23Z</time>
      </trkpt>
      <trkpt lat="45.18227" lon="6.13186">
        <ele>2278.54</ele>
        <time>2018-07-01T11:52:43Z</time>
      </trkpt>
      <trkpt lat="45.18246" lon="6.13187">
        <ele>2282.77</ele>
        <time>2018-07-01T11:53:08Z</time>
      </trkpt>
      <trkpt lat="45.18265" lon="6.13188">
        <ele>2285.58</ele>
        <time>2018-07-01T11:53:24Z</time>
      </trkpt>
      <trkpt lat="45.18284" lon="6.13193">
        <ele>2281.78</ele>
        <time>2018-07-01T11:53:43Z</time>
      </trkpt>
      <trkpt lat="45.18302" lon="6.132">
        <ele>2283.71</ele>
        <time>2018-07-01T11:54:12Z</time>
      </trkpt>
      <trkpt lat="45.18321" lon="6.13199">
        <ele>2285.9</ele>
        <time>2018-07-01T11:54:24Z</time>
      </trkpt>
      <trkpt lat="45.1834" lon="6.13203">
        <ele>2290.74</ele>
        <time>2018-07-01T11:54:40Z</time>
      </trkpt>
      <trkpt lat="45.18358" lon="6.13203">
        <ele>2284.93</ele>
        <time>2018-07-01T11:55:01Z</time>
      </trkpt>
      <trkpt lat="45.18375" lon="6.13212">
        <ele>2286.55</ele>
        <time>2018-07-01T11:55:15Z</time>
      </trkpt>
      <trkpt lat="45.18392" lon="6.1322">
        <ele>2284.79</ele>
        <time>2018-07-01T11:55:36Z</time>
      </trkpt>
      <trkpt lat="45.18411" lon="6.13224">
        <ele>2286.74</ele>
        <time>2018-07-01T11:55:51Z</time>
      </trkpt>
      <trkpt lat="45.1843" lon="6.13225">
        <ele>2289.73</ele>
        <time>2018-07-01T11:56:06Z</time>
      </trkpt>
      <trkpt lat="45.18448" lon="6.13229">
        <ele>2285.78</ele>
        <time>2018-07-01T11:56:31Z</time>
      </trkpt>
      <trkpt lat="45.18466" lon="6.13232">
        <ele>2284.57</ele>
        <time>2018-07-01T11:56:54Z</time>
      </trkpt>
      <trkpt lat="45.18484" lon="6.13234">
        <ele>2282.78</ele>
        <time>2018-07-01T11:57:09Z</time>
      </trkpt>
      <trkpt lat="45.18502" lon="6.13228">
        <ele>2275.18</ele>
        <time>2018-07-01T11:57:35Z</time>
      </trkpt>
      <trkpt lat="45.1852" lon="6.13221">
        <ele>2269.79</ele>
        <time>2018-07-01T11:58:01Z</time>
      </trkpt>
      <trkpt lat="45.18539" lon="6.13222">
        <ele>2266.53</ele>
        <time>2018-07-01T11:58:17Z</time>
      </trkpt>
      <trkpt lat="45.18556" lon="6.13233">
        <ele>2267.94</ele>
        <time>2018-07-01T11:58:31Z</time>
      </trkpt>
      <trkpt lat="45.18568" lon="6.13253">
        <ele>2269.7</ele>
        <time>2018-07-01T11:58:46Z</time>
      </trkpt>
      <trkpt lat="45.18584" lon="6.13266">
        <ele>2271.94</ele>
        <time>2018-07-01T11:59:01Z</time>
      </trkpt>
      <trkpt lat="45.18602" lon="6.13258">
        <ele>2267.99</ele>
        <time>2018-07-01T12:00:29Z</time>
      </trkpt>
      <trkpt lat="45.18618" lon="6.13246">
        <ele>2262.97</ele>
        <time>2018-07-01T12:00:46Z</time>
      </trkpt>
      <trkpt lat="45.18636" lon="6.13234">
        <ele>2262.75</ele>
        <time>2018-07-01T12:00:59Z</time>
      </trkpt>
      <trkpt lat="45.18655" lon="6.13232">
        <ele>2263.7</ele>
        <time>2018-07-01T12:01:10Z</time>
      </trkpt>
      <trkpt lat="45.18674" lon="6.13223">
        <ele>2260.79</ele>
        <time>2018-07-01T12:01:20Z</time>
      </trkpt>
      <trkpt lat="45.18692" lon="6.13225">
        <ele>2259.06</ele>
        <time>2018-07-01T12:01:30Z</time>
      </trkpt>
      <trkpt lat="45.18711" lon="6.13229">
        <ele>2256.74</ele>
        <time>2018-07-01T12:01:40Z</time>
      </trkpt>
      <trkpt lat="45.1873" lon="6.1323">
        <ele>2250.63</ele>
        <time>2018-07-01T12:01:50Z</time>
      </trkpt>
      <trkpt lat="45.18748" lon="6.13239">
        <ele>2249.47</ele>
        <time>2018-07-01T12:02:01Z</time>
      </trkpt>
      <trkpt lat="45.18767" lon="6.13246">
        <ele>2245.74</ele>
        <time>2018-07-01T12:02:20Z</time>
      </trkpt>
      <trkpt lat="45.18784" lon="6.13257">
        <ele>2242.9</ele>
        <time>2018-07-01T12:02:37Z</time>
      </trkpt>
      <trkpt lat="45.18796" lon="6.13277">
        <ele>2241.77</ele>
        <time>2018-07-01T12:02:50Z</time>
      </trkpt>
      <trkpt lat="45.18813" lon="6.1329">
        <ele>2241.74</ele>
        <time>2018-07-01T12:03:02Z</time>
      </trkpt>
      <trkpt lat="45.1883" lon="6.133">
        <ele>2235.95</ele>
        <time>2018-07-01T12:03:18Z</time>
      </trkpt>
      <trkpt lat="45.18848" lon="6.13305">
        <ele>2233.74</ele>
        <time>2018-07-01T12:03:32Z</time>
      </trkpt>
      <trkpt lat="45.18867" lon="6.13312">
        <ele>2234.73</ele>
        <time>2018-07-01T12:03:48Z</time>
      </trkpt>
      <trkpt lat="45.18885" lon="6.1331">
        <ele>2227.75</ele>
        <time>2018-07-01T12:04:01Z</time>
      </trkpt>
      <trkpt lat="45.18902" lon="6.13301">
        <ele>2224.74</ele>
        <time>2018-07-01T12:04:16Z</time>
      </trkpt>
      <trkpt lat="45.18917" lon="6.13286">
        <ele>2216.78</ele>
        <time>2018-07-01T12:04:35Z</time>
      </trkpt>
      <trkpt lat="45.1893" lon="6.13264">
        <ele>2210.54</ele>
        <time>2018-07-01T12:04:57Z</time>
      </trkpt>
      <trkpt lat="45.18939" lon="6.1324">
        <ele>2207.82</ele>
        <time>2018-07-01T12:05:10Z</time>
      </trkpt>
      <trkpt lat="45.18948" lon="6.13217">
        <ele>2205.86</ele>
        <time>2018-07-01T12:05:23Z</time>
      </trkpt>
      <trkpt lat="45.18957" lon="6.13194">
        <ele>2203.53</ele>
        <time>2018-07-01T12:05:34Z</time>
      </trkpt>
      <trkpt lat="45.18968" lon="6.13174">
        <ele>2203.74</ele>
        <time>2018-07-01T12:05:53Z</time>
      </trkpt>
      <trkpt lat="45.18984" lon="6.13159">
        <ele>2205.54</ele>
        <time>2018-07-01T12:06:06Z</time>
      </trkpt>
      <trkpt lat="45.18997" lon="6.13142">
        <ele>2207.82</ele>
        <time>2018-07-01T12:06:22Z</time>
      </trkpt>
      <trkpt lat="45.19003" lon="6.13115">
        <ele>2198.91</ele>
        <time>2018-07-01T12:06:42Z</time>
      </trkpt>
      <trkpt lat="45.19013" lon="6.13094">
        <ele>2201.73</ele>
        <time>2018-07-01T12:06:55Z</time>
      </trkpt>
      <trkpt lat="45.19027" lon="6.13074">
        <ele>2199.75</ele>
        <time>2018-07-01T12:07:10Z</time>
      </trkpt>
      <trkpt lat="45.19043" lon="6.13062">
        <ele>2207.8</ele>
        <time>2018-07-01T12:07:21Z</time>
      </trkpt>
      <trkpt lat="45.19056" lon="6.13044">
        <ele>2206.74</ele>
        <time>2018-07-01T12:07:35Z</time>
      </trkpt>
      <trkpt lat="45.19068" lon="6.13025">
        <ele>2206.54</ele>
        <time>2018-07-01T12:07:52Z</time>
      </trkpt>
      <trkpt lat="45.19085" lon="6.13014">
        <ele>2202.74</ele>
        <time>2018-07-01T12:08:46Z</time>
      </trkpt>
      <trkpt lat="45.19094" lon="6.12992">
        <ele>2198.02</ele>
        <time>2018-07-01T12:09:03Z</time>
      </trkpt>
      <trkpt lat="45.19094" lon="6.12966">
        <ele>2192.55</ele>
        <time>2018-07-01T12:09:17Z</time>
      </trkpt>
      <trkpt lat="45.19097" lon="6.1294">
        <ele>2193.78</ele>
        <time>2018-07-01T12:09:31Z</time>
      </trkpt>
      <trkpt lat="45.191" lon="6.12914">
        <ele>2189.71</ele>
        <time>2018-07-01T12:09:50Z</time>
      </trkpt>
      <trkpt lat="45.19094" lon="6.12889">
        <ele>2186.7</ele>
        <time>2018-07-01T12:10:18Z</time>
      </trkpt>
      <trkpt lat="45.19081" lon="6.1287">
        <ele>2180.21</ele>
        <time>2018-07-01T12:10:34Z</time>
      </trkpt>
      <trkpt lat="45.19081" lon="6.12844">
        <ele>2179.75</ele>
        <time>2018-07-01T12:11:00Z</time>
      </trkpt>
      <trkpt lat="45.19089" lon="6.12821">
        <ele>2187.74</ele>
        <time>2018-07-01T12:13:18Z</time>
      </trkpt>
      <trkpt lat="45.19097" lon="6.12797">
        <ele>2181.65</ele>
        <time>2018-07-01T12:15:10Z</time>
      </trkpt>
      <trkpt lat="45.19114" lon="6.12791">
        <ele>2182.93</ele>
        <time>2018-07-01T12:15:28Z</time>
      </trkpt>
      <trkpt lat="45.19131" lon="6.12775">
        <ele>2181.18</ele>
        <time>2018-07-01T12:16:45Z</time>
      </trkpt>
      <trkpt lat="45.19151" lon="6.12779">
        <ele>2190.15</ele>
        <time>2018-07-01T12:17:06Z</time>
      </trkpt>
      <trkpt lat="45.19164" lon="6.12762">
        <ele>2185.75</ele>
        <time>2018-07-01T12:17:26Z</time>
      </trkpt>
      <trkpt lat="45.19177" lon="6.12743">
        <ele>2179.74</ele>
        <time>2018-07-01T12:17:50Z</time>
      </trkpt>
      <trkpt lat="45.19181" lon="6.12718">
        <ele>2177.75</ele>
        <time>2018-07-01T12:18:22Z</time>
      </trkpt>
      <trkpt lat="45.19172" lon="6.12695">
        <ele>2171.78</ele>
        <time>2018-07-01T12:18:37Z</time>
      </trkpt>
      <trkpt lat="45.19163" lon="6.12672">
        <ele>2168.74</ele>
        <time>2018-07-01T12:18:54Z</time>
      </trkpt>
      <trkpt lat="45.19164" lon="6.12645">
        <ele>2170.74</ele>
        <time>2018-07-01T12:19:15Z</time>
      </trkpt>
      <trkpt lat="45.19173" lon="6.12623">
        <ele>2172.98</ele>
        <time>2018-07-01T12:19:30Z</time>
      </trkpt>
      <trkpt lat="45.19182" lon="6.126">
        <ele>2168.55</ele>
        <time>2018-07-01T12:19:46Z</time>
      </trkpt>
      <trkpt lat="45.19171" lon="6.12578">
        <ele>2175.73</ele>
        <time>2018-07-01T12:20:05Z</time>
      </trkpt>
      <trkpt lat="45.19186" lon="6.12562">
        <ele>2178.77</ele>
        <time>2018-07-01T12:21:00Z</time>
      </trkpt>
      <trkpt lat="45.192" lon="6.12546">
        <ele>2173.77</ele>
        <time>2018-07-01T12:21:23Z</time>
      </trkpt>
      <trkpt lat="45.19205" lon="6.12521">
        <ele>2162.98</ele>
        <time>2018-07-01T12:21:42Z</time>
      </trkpt>
      <trkpt lat="45.19211" lon="6.12496">
        <ele>2154.94</ele>
        <time>2018-07-01T12:22:31Z</time>
      </trkpt>
      <trkpt lat="45.19215" lon="6.1247">
        <ele>2152.78</ele>
        <time>2018-07-01T12:22:50Z</time>
      </trkpt>
      <trkpt lat="45.19207" lon="6.12446">
        <ele>2154.55</ele>
        <time>2018-07-01T12:23:22Z</time>
      </trkpt>
      <trkpt lat="45.19204" lon="6.12421">
        <ele>2149.75</ele>
        <time>2018-07-01T12:23:38Z</time>
      </trkpt>
      <trkpt lat="45.19211" lon="6.12396">
        <ele>2142.75</ele>
        <time>2018-07-01T12:23:57Z</time>
      </trkpt>
      <trkpt lat="45.19211" lon="6.1237">
        <ele>2079.77</ele>
        <time>2018-07-01T12:24:41Z</time>
      </trkpt>
      <trkpt lat="45.19229" lon="6.12375">
        <ele>2138.34</ele>
        <time>2018-07-01T12:25:36Z</time>
      </trkpt>
      <trkpt lat="45.19244" lon="6.12389">
        <ele>2139.75</ele>
        <time>2018-07-01T12:25:55Z</time>
      </trkpt>
      <trkpt lat="45.19262" lon="6.124">
        <ele>2137.93</ele>
        <time>2018-07-01T12:26:10Z</time>
      </trkpt>
      <trkpt lat="45.19278" lon="6.1239">
        <ele>2131.79</ele>
        <time>2018-07-01T12:26:59Z</time>
      </trkpt>
      <trkpt lat="45.19297" lon="6.1239">
        <ele>2130.74</ele>
        <time>2018-07-01T12:27:15Z</time>
      </trkpt>
      <trkpt lat="45.19313" lon="6.12378">
        <ele>2131.92</ele>
        <time>2018-07-01T12:27:31Z</time>
      </trkpt>
      <trkpt lat="45.19331" lon="6.12371">
        <ele>2127.73</ele>
        <time>2018-07-01T12:28:01Z</time>
      </trkpt>
      <trkpt lat="45.19337" lon="6.12345">
        <ele>2128.92</ele>
        <time>2018-07-01T12:28:17Z</time>
      </trkpt>
      <trkpt lat="45.19351" lon="6.12327">
        <ele>2127.55</ele>
        <time>2018-07-01T12:28:31Z</time>
      </trkpt>
      <trkpt lat="45.19362" lon="6.12305">
        <ele>2131.94</ele>
        <time>2018-07-01T12:28:54Z</time>
      </trkpt>
      <trkpt lat="45.19368" lon="6.12278">
        <ele>2124.75</ele>
        <time>2018-07-01T12:29:15Z</time>
      </trkpt>
      <trkpt lat="45.19385" lon="6.12271">
        <ele>2124.35</ele>
        <time>2018-07-01T12:29:29Z</time>
      </trkpt>
      <trkpt lat="45.19391" lon="6.12245">
        <ele>2125.55</ele>
        <time>2018-07-01T12:29:47Z</time>
      </trkpt>
      <trkpt lat="45.19402" lon="6.12224">
        <ele>2120.94</ele>
        <time>2018-07-01T12:30:02Z</time>
      </trkpt>
      <trkpt lat="45.19409" lon="6.122">
        <ele>2115.91</ele>
        <time>2018-07-01T12:30:17Z</time>
      </trkpt>
      <trkpt lat="45.19426" lon="6.12161">
        <ele>2112</ele>
      </trkpt>
      <trkpt lat="45.19457" lon="6.12113">
        <ele>2101</ele>
      </trkpt>
      <trkpt lat="45.19483" lon="6.12016">
        <ele>2095.1</ele>
      </trkpt>
      <trkpt lat="45.19532" lon="6.11962">
        <ele>2076</ele>
      </trkpt>
      <trkpt lat="45.19543" lon="6.11931">
        <ele>2075</ele>
      </trkpt>
      <trkpt lat="45.19543" lon="6.11888">
        <ele>2070.7</ele>
      </trkpt>
      <trkpt lat="45.19532" lon="6.11875">
        <ele>2070</ele>
      </trkpt>
      <trkpt lat="45.19516" lon="6.11854">
        <ele>2069</ele>
      </trkpt>
      <trkpt lat="45.19475" lon="6.11841">
        <ele>2071.6</ele>
      </trkpt>
      <trkpt lat="45.19451" lon="6.11829">
        <ele>2058</ele>
      </trkpt>
      <trkpt lat="45.19439" lon="6.11824">
        <ele>2058</ele>
      </trkpt>
      <trkpt lat="45.19426" lon="6.11829">
        <ele>2060.8</ele>
      </trkpt>
      <trkpt lat="45.19374" lon="6.11827">
        <ele>2059</ele>
      </trkpt>
      <trkpt lat="45.19343" lon="6.11821">
        <ele>2063</ele>
      </trkpt>
      <trkpt lat="45.19323" lon="6.11814">
        <ele>2068</ele>
      </trkpt>
      <trkpt lat="45.193" lon="6.11796">
        <ele>2065.4</ele>
      </trkpt>
      <trkpt lat="45.19262" lon="6.11754">
        <ele>2062</ele>
      </trkpt>
      <trkpt lat="45.19202" lon="6.11707">
        <ele>2059</ele>
      </trkpt>
      <trkpt lat="45.19171" lon="6.11683">
        <ele>2059</ele>
      </trkpt>
      <trkpt lat="45.19142" lon="6.11659">
        <ele>2061.2</ele>
      </trkpt>
      <trkpt lat="45.19123" lon="6.11618">
        <ele>2063</ele>
      </trkpt>
      <trkpt lat="45.19129" lon="6.11569">
        <ele>2069</ele>
      </trkpt>
      <trkpt lat="45.19121" lon="6.11539">
        <ele>2071</ele>
      </trkpt>
      <trkpt lat="45.19107" lon="6.11509">
        <ele>2073</ele>
      </trkpt>
      <trkpt lat="45.19103" lon="6.11463">
        <ele>2084</ele>
      </trkpt>
      <trkpt lat="45.19099" lon="6.11417">
        <ele>2089.5</ele>
      </trkpt>
      <trkpt lat="45.19084" lon="6.11382">
        <ele>2086.73</ele>
        <time>2018-07-01T12:45:51Z</time>
      </trkpt>
      <trkpt lat="45.19073" lon="6.1136">
        <ele>2092.74</ele>
        <time>2018-07-01T12:46:12Z</time>
      </trkpt>
      <trkpt lat="45.19063" lon="6.11339">
        <ele>2094.69</ele>
        <time>2018-07-01T12:46:32Z</time>
      </trkpt>
      <trkpt lat="45.19055" lon="6.11315">
        <ele>2104.37</ele>
        <time>2018-07-01T12:47:02Z</time>
      </trkpt>
      <trkpt lat="45.19048" lon="6.11292">
        <ele>2110.7</ele>
        <time>2018-07-01T12:47:27Z</time>
      </trkpt>
      <trkpt lat="45.19065" lon="6.11278">
        <ele>2116.34</ele>
        <time>2018-07-01T12:48:00Z</time>
      </trkpt>
      <trkpt lat="45.19074" lon="6.11254">
        <ele>2117.59</ele>
        <time>2018-07-01T12:48:33Z</time>
      </trkpt>
      <trkpt lat="45.19086" lon="6.11233">
        <ele>2120.1</ele>
        <time>2018-07-01T12:49:01Z</time>
      </trkpt>
      <trkpt lat="45.19092" lon="6.11208">
        <ele>2116.77</ele>
        <time>2018-07-01T12:49:18Z</time>
      </trkpt>
      <trkpt lat="45.19106" lon="6.11192">
        <ele>2120.88</ele>
        <time>2018-07-01T12:49:32Z</time>
      </trkpt>
      <trkpt lat="45.19121" lon="6.11178">
        <ele>2120.49</ele>
        <time>2018-07-01T12:49:48Z</time>
      </trkpt>
      <trkpt lat="45.19116" lon="6.11153">
        <ele>2119.95</ele>
        <time>2018-07-01T12:49:57Z</time>
      </trkpt>
      <trkpt lat="45.19114" lon="6.11127">
        <ele>2118.7</ele>
        <time>2018-07-01T12:50:14Z</time>
      </trkpt>
      <trkpt lat="45.18991" lon="6.10859">
        <ele>2090.62</ele>
        <time>2018-07-01T12:53:57Z</time>
      </trkpt>
      <trkpt lat="45.18976" lon="6.10842">
        <ele>1991.41</ele>
        <time>2018-07-01T12:54:15Z</time>
      </trkpt>
      <trkpt lat="45.18962" lon="6.10825">
        <ele>2076.76</ele>
        <time>2018-07-01T12:54:32Z</time>
      </trkpt>
      <trkpt lat="45.18947" lon="6.1081">
        <ele>2086.18</ele>
        <time>2018-07-01T12:54:48Z</time>
      </trkpt>
      <trkpt lat="45.18932" lon="6.10794">
        <ele>2086.73</ele>
        <time>2018-07-01T12:55:03Z</time>
      </trkpt>
      <trkpt lat="45.18923" lon="6.10771">
        <ele>2086.54</ele>
        <time>2018-07-01T12:55:20Z</time>
      </trkpt>
      <trkpt lat="45.18912" lon="6.10748">
        <ele>2086.55</ele>
        <time>2018-07-01T12:55:34Z</time>
      </trkpt>
      <trkpt lat="45.189" lon="6.10728">
        <ele>2086.7</ele>
        <time>2018-07-01T12:55:47Z</time>
      </trkpt>
      <trkpt lat="45.18888" lon="6.10706">
        <ele>2075.78</ele>
        <time>2018-07-01T12:56:09Z</time>
      </trkpt>
      <trkpt lat="45.18881" lon="6.10683">
        <ele>2076.74</ele>
        <time>2018-07-01T12:56:22Z</time>
      </trkpt>
      <trkpt lat="45.1887" lon="6.10662">
        <ele>2081.7</ele>
        <time>2018-07-01T12:56:35Z</time>
      </trkpt>
      <trkpt lat="45.18862" lon="6.10637">
        <ele>2080.67</ele>
        <time>2018-07-01T12:56:58Z</time>
      </trkpt>
      <trkpt lat="45.18855" lon="6.10612">
        <ele>2076.55</ele>
        <time>2018-07-01T12:57:15Z</time>
      </trkpt>
      <trkpt lat="45.1884" lon="6.10595">
        <ele>2080.02</ele>
        <time>2018-07-01T12:57:29Z</time>
      </trkpt>
      <trkpt lat="45.18827" lon="6.10576">
        <ele>2077.53</ele>
        <time>2018-07-01T12:57:43Z</time>
      </trkpt>
      <trkpt lat="45.18816" lon="6.10554">
        <ele>2067.76</ele>
        <time>2018-07-01T12:58:06Z</time>
      </trkpt>
      <trkpt lat="45.18804" lon="6.10535">
        <ele>2058.95</ele>
        <time>2018-07-01T12:58:27Z</time>
      </trkpt>
      <trkpt lat="45.18801" lon="6.10508">
        <ele>2047.54</ele>
        <time>2018-07-01T12:58:43Z</time>
      </trkpt>
      <trkpt lat="45.18799" lon="6.10481">
        <ele>2044.62</ele>
        <time>2018-07-01T12:59:05Z</time>
      </trkpt>
      <trkpt lat="45.18786" lon="6.10458">
        <ele>2048.29</ele>
        <time>2018-07-01T12:59:19Z</time>
      </trkpt>
      <trkpt lat="45.18785" lon="6.10433">
        <ele>2032.74</ele>
        <time>2018-07-01T13:00:03Z</time>
      </trkpt>
      <trkpt lat="45.18773" lon="6.10413">
        <ele>2031.73</ele>
        <time>2018-07-01T13:00:21Z</time>
      </trkpt>
      <trkpt lat="45.18761" lon="6.10393">
        <ele>2032.74</ele>
        <time>2018-07-01T13:00:39Z</time>
      </trkpt>
      <trkpt lat="45.18751" lon="6.10372">
        <ele>2027.7</ele>
        <time>2018-07-01T13:00:58Z</time>
      </trkpt>
      <trkpt lat="45.18737" lon="6.10353">
        <ele>2021.78</ele>
        <time>2018-07-01T13:01:48Z</time>
      </trkpt>
      <trkpt lat="45.18724" lon="6.10335">
        <ele>2012.78</ele>
        <time>2018-07-01T13:02:12Z</time>
      </trkpt>
      <trkpt lat="45.18708" lon="6.10324">
        <ele>2010.89</ele>
        <time>2018-07-01T13:02:29Z</time>
      </trkpt>
      <trkpt lat="45.18693" lon="6.10306">
        <ele>2011.57</ele>
        <time>2018-07-01T13:02:44Z</time>
      </trkpt>
      <trkpt lat="45.18676" lon="6.10293">
        <ele>2000.55</ele>
        <time>2018-07-01T13:03:14Z</time>
      </trkpt>
      <trkpt lat="45.18661" lon="6.10278">
        <ele>1994.75</ele>
        <time>2018-07-01T13:03:32Z</time>
      </trkpt>
      <trkpt lat="45.18646" lon="6.10261">
        <ele>1988.74</ele>
        <time>2018-07-01T13:03:49Z</time>
      </trkpt>
      <trkpt lat="45.18637" lon="6.10237">
        <ele>1987.58</ele>
        <time>2018-07-01T13:04:04Z</time>
      </trkpt>
      <trkpt lat="45.18636" lon="6.10209">
        <ele>1982.94</ele>
        <time>2018-07-01T13:04:22Z</time>
      </trkpt>
      <trkpt lat="45.18633" lon="6.10184">
        <ele>1972.74</ele>
        <time>2018-07-01T13:05:32Z</time>
      </trkpt>
      <trkpt lat="45.18632" lon="6.10158">
        <ele>1972.74</ele>
        <time>2018-07-01T13:06:34Z</time>
      </trkpt>
      <trkpt lat="45.1863" lon="6.10132">
        <ele>1966.94</ele>
        <time>2018-07-01T13:06:52Z</time>
      </trkpt>
      <trkpt lat="45.18627" lon="6.10106">
        <ele>1962.74</ele>
        <time>2018-07-01T13:07:11Z</time>
      </trkpt>
      <trkpt lat="45.18629" lon="6.1008">
        <ele>1961.79</ele>
        <time>2018-07-01T13:07:37Z</time>
      </trkpt>
      <trkpt lat="45.18614" lon="6.10066">
        <ele>1958.5</ele>
        <time>2018-07-01T13:08:29Z</time>
      </trkpt>
      <trkpt lat="45.1861" lon="6.10041">
        <ele>1959.81</ele>
        <time>2018-07-01T13:08:49Z</time>
      </trkpt>
      <trkpt lat="45.18601" lon="6.10019">
        <ele>1960.3</ele>
        <time>2018-07-01T13:09:06Z</time>
      </trkpt>
      <trkpt lat="45.18593" lon="6.09995">
        <ele>1954.73</ele>
        <time>2018-07-01T13:09:45Z</time>
      </trkpt>
      <trkpt lat="45.18585" lon="6.09972">
        <ele>1952.53</ele>
        <time>2018-07-01T13:10:04Z</time>
      </trkpt>
      <trkpt lat="45.18576" lon="6.09948">
        <ele>1950.7</ele>
        <time>2018-07-01T13:10:19Z</time>
      </trkpt>
      <trkpt lat="45.18564" lon="6.09929">
        <ele>1949.74</ele>
        <time>2018-07-01T13:10:46Z</time>
      </trkpt>
      <trkpt lat="45.1855" lon="6.0991">
        <ele>1942.99</ele>
        <time>2018-07-01T13:11:03Z</time>
      </trkpt>
      <trkpt lat="45.18537" lon="6.09892">
        <ele>1948.78</ele>
        <time>2018-07-01T13:11:19Z</time>
      </trkpt>
      <trkpt lat="45.18522" lon="6.09877">
        <ele>1947.95</ele>
        <time>2018-07-01T13:11:37Z</time>
      </trkpt>
      <trkpt lat="45.18511" lon="6.09855">
        <ele>1936.74</ele>
        <time>2018-07-01T13:11:57Z</time>
      </trkpt>
      <trkpt lat="45.18496" lon="6.0984">
        <ele>1931.76</ele>
        <time>2018-07-01T13:12:14Z</time>
      </trkpt>
      <trkpt lat="45.18481" lon="6.09824">
        <ele>1925.78</ele>
        <time>2018-07-01T13:12:34Z</time>
      </trkpt>
      <trkpt lat="45.18465" lon="6.09811">
        <ele>1920.57</ele>
        <time>2018-07-01T13:12:52Z</time>
      </trkpt>
      <trkpt lat="45.18448" lon="6.09799">
        <ele>1915.58</ele>
        <time>2018-07-01T13:13:14Z</time>
      </trkpt>
      <trkpt lat="45.1843" lon="6.09792">
        <ele>1925.79</ele>
        <time>2018-07-01T13:13:32Z</time>
      </trkpt>
      <trkpt lat="45.18411" lon="6.098">
        <ele>1913.92</ele>
        <time>2018-07-01T13:13:50Z</time>
      </trkpt>
      <trkpt lat="45.18393" lon="6.09803">
        <ele>1909.78</ele>
        <time>2018-07-01T13:14:05Z</time>
      </trkpt>
      <trkpt lat="45.18381" lon="6.09824">
        <ele>1898.75</ele>
        <time>2018-07-01T13:14:24Z</time>
      </trkpt>
      <trkpt lat="45.18372" lon="6.09848">
        <ele>1897.71</ele>
        <time>2018-07-01T13:14:41Z</time>
      </trkpt>
      <trkpt lat="45.18362" lon="6.09873">
        <ele>1894.5</ele>
        <time>2018-07-01T13:14:57Z</time>
      </trkpt>
      <trkpt lat="45.1836" lon="6.09898">
        <ele>1890.59</ele>
        <time>2018-07-01T13:15:12Z</time>
      </trkpt>
      <trkpt lat="45.18357" lon="6.09924">
        <ele>1883.36</ele>
        <time>2018-07-01T13:15:31Z</time>
      </trkpt>
      <trkpt lat="45.1835" lon="6.09948">
        <ele>1876.74</ele>
        <time>2018-07-01T13:15:47Z</time>
      </trkpt>
      <trkpt lat="45.18337" lon="6.09966">
        <ele>1873.93</ele>
        <time>2018-07-01T13:16:08Z</time>
      </trkpt>
      <trkpt lat="45.1832" lon="6.09957">
        <ele>1870.75</ele>
        <time>2018-07-01T13:16:28Z</time>
      </trkpt>
      <trkpt lat="45.18309" lon="6.09936">
        <ele>1863.59</ele>
        <time>2018-07-01T13:18:03Z</time>
      </trkpt>
      <trkpt lat="45.183" lon="6.09913">
        <ele>1863.54</ele>
        <time>2018-07-01T13:18:20Z</time>
      </trkpt>
      <trkpt lat="45.1829" lon="6.09889">
        <ele>1861.7</ele>
        <time>2018-07-01T13:18:33Z</time>
      </trkpt>
      <trkpt lat="45.18278" lon="6.09867">
        <ele>1863.73</ele>
        <time>2018-07-01T13:18:50Z</time>
      </trkpt>
      <trkpt lat="45.18269" lon="6.09842">
        <ele>1861.11</ele>
        <time>2018-07-01T13:19:01Z</time>
      </trkpt>
      <trkpt lat="45.18262" lon="6.09818">
        <ele>1850.78</ele>
        <time>2018-07-01T13:19:13Z</time>
      </trkpt>
      <trkpt lat="45.18257" lon="6.09793">
        <ele>1839.18</ele>
        <time>2018-07-01T13:19:28Z</time>
      </trkpt>
      <trkpt lat="45.18243" lon="6.09776">
        <ele>1834.78</ele>
        <time>2018-07-01T13:19:45Z</time>
      </trkpt>
      <trkpt lat="45.18226" lon="6.09789">
        <ele>1831.76</ele>
        <time>2018-07-01T13:20:09Z</time>
      </trkpt>
      <trkpt lat="45.18234" lon="6.09758">
        <ele>1818.78</ele>
        <time>2018-07-01T13:21:48Z</time>
      </trkpt>
      <trkpt lat="45.18242" lon="6.09728">
        <ele>1819.74</ele>
        <time>2018-07-01T13:21:52Z</time>
      </trkpt>
      <trkpt lat="45.18234" lon="6.09699">
        <ele>1817.66</ele>
        <time>2018-07-01T13:21:55Z</time>
      </trkpt>
      <trkpt lat="45.18235" lon="6.09669">
        <ele>1817.9</ele>
        <time>2018-07-01T13:22:00Z</time>
      </trkpt>
      <trkpt lat="45.18253" lon="6.09658">
        <ele>1815.98</ele>
        <time>2018-07-01T13:22:03Z</time>
      </trkpt>
      <trkpt lat="45.1825" lon="6.0963">
        <ele>1816.54</ele>
        <time>2018-07-01T13:22:06Z</time>
      </trkpt>
      <trkpt lat="45.18239" lon="6.09605">
        <ele>1814.97</ele>
        <time>2018-07-01T13:22:08Z</time>
      </trkpt>
      <trkpt lat="45.18231" lon="6.0958">
        <ele>1814.74</ele>
        <time>2018-07-01T13:22:11Z</time>
      </trkpt>
      <trkpt lat="45.18234" lon="6.09549">
        <ele>1815.7</ele>
        <time>2018-07-01T13:22:15Z</time>
      </trkpt>
      <trkpt lat="45.18235" lon="6.09518">
        <ele>1817.6</ele>
        <time>2018-07-01T13:22:20Z</time>
      </trkpt>
      <trkpt lat="45.18214" lon="6.09498">
        <ele>1817.11</ele>
        <time>2018-07-01T13:22:24Z</time>
      </trkpt>
      <trkpt lat="45.18198" lon="6.09481">
        <ele>1815.94</ele>
        <time>2018-07-01T13:22:27Z</time>
      </trkpt>
      <trkpt lat="45.1818" lon="6.0945">
        <ele>1813.98</ele>
        <time>2018-07-01T13:22:30Z</time>
      </trkpt>
      <trkpt lat="45.18168" lon="6.09428">
        <ele>1811.99</ele>
        <time>2018-07-01T13:22:32Z</time>
      </trkpt>
      <trkpt lat="45.18151" lon="6.09405">
        <ele>1813.83</ele>
        <time>2018-07-01T13:22:34Z</time>
      </trkpt>
      <trkpt lat="45.18132" lon="6.09382">
        <ele>1812.75</ele>
        <time>2018-07-01T13:22:37Z</time>
      </trkpt>
      <trkpt lat="45.18114" lon="6.09361">
        <ele>1812.74</ele>
        <time>2018-07-01T13:22:40Z</time>
      </trkpt>
      <trkpt lat="45.18095" lon="6.09349">
        <ele>1809.99</ele>
        <time>2018-07-01T13:22:43Z</time>
      </trkpt>
      <trkpt lat="45.18075" lon="6.09339">
        <ele>1807.95</ele>
        <time>2018-07-01T13:22:46Z</time>
      </trkpt>
      <trkpt lat="45.18053" lon="6.09331">
        <ele>1800.09</ele>
        <time>2018-07-01T13:22:50Z</time>
      </trkpt>
      <trkpt lat="45.18034" lon="6.09318">
        <ele>1797.63</ele>
        <time>2018-07-01T13:22:53Z</time>
      </trkpt>
      <trkpt lat="45.18029" lon="6.0929">
        <ele>1792.2</ele>
        <time>2018-07-01T13:22:56Z</time>
      </trkpt>
      <trkpt lat="45.18024" lon="6.09255">
        <ele>1788</ele>
        <time>2018-07-01T13:23:00Z</time>
      </trkpt>
      <trkpt lat="45.18022" lon="6.09224">
        <ele>1787.58</ele>
        <time>2018-07-01T13:23:03Z</time>
      </trkpt>
      <trkpt lat="45.18011" lon="6.09201">
        <ele>1781.88</ele>
        <time>2018-07-01T13:23:06Z</time>
      </trkpt>
      <trkpt lat="45.17997" lon="6.09178">
        <ele>1781.94</ele>
        <time>2018-07-01T13:23:11Z</time>
      </trkpt>
      <trkpt lat="45.17986" lon="6.09157">
        <ele>1780.75</ele>
        <time>2018-07-01T13:23:14Z</time>
      </trkpt>
      <trkpt lat="45.17972" lon="6.0914">
        <ele>1776.9</ele>
        <time>2018-07-01T13:23:16Z</time>
      </trkpt>
      <trkpt lat="45.17958" lon="6.09124">
        <ele>1774.99</ele>
        <time>2018-07-01T13:23:18Z</time>
      </trkpt>
      <trkpt lat="45.17939" lon="6.09111">
        <ele>1775.9</ele>
        <time>2018-07-01T13:23:21Z</time>
      </trkpt>
      <trkpt lat="45.17923" lon="6.09099">
        <ele>1775.13</ele>
        <time>2018-07-01T13:23:24Z</time>
      </trkpt>
      <trkpt lat="45.17901" lon="6.09082">
        <ele>1771.96</ele>
        <time>2018-07-01T13:23:27Z</time>
      </trkpt>
      <trkpt lat="45.17889" lon="6.09063">
        <ele>1772.54</ele>
        <time>2018-07-01T13:23:30Z</time>
      </trkpt>
      <trkpt lat="45.17875" lon="6.09047">
        <ele>1771.13</ele>
        <time>2018-07-01T13:23:32Z</time>
      </trkpt>
      <trkpt lat="45.17854" lon="6.09036">
        <ele>1768.95</ele>
        <time>2018-07-01T13:23:35Z</time>
      </trkpt>
      <trkpt lat="45.17836" lon="6.09045">
        <ele>1762.97</ele>
        <time>2018-07-01T13:23:40Z</time>
      </trkpt>
      <trkpt lat="45.17811" lon="6.09033">
        <ele>1762.74</ele>
        <time>2018-07-01T13:23:43Z</time>
      </trkpt>
      <trkpt lat="45.17791" lon="6.09024">
        <ele>1763.73</ele>
        <time>2018-07-01T13:23:46Z</time>
      </trkpt>
      <trkpt lat="45.17773" lon="6.09015">
        <ele>1764.54</ele>
        <time>2018-07-01T13:23:49Z</time>
      </trkpt>
      <trkpt lat="45.1775" lon="6.09008">
        <ele>1759.14</ele>
        <time>2018-07-01T13:23:52Z</time>
      </trkpt>
      <trkpt lat="45.17731" lon="6.08994">
        <ele>1756.79</ele>
        <time>2018-07-01T13:23:55Z</time>
      </trkpt>
      <trkpt lat="45.17712" lon="6.08981">
        <ele>1752.68</ele>
        <time>2018-07-01T13:23:58Z</time>
      </trkpt>
      <trkpt lat="45.17694" lon="6.08972">
        <ele>1751.88</ele>
        <time>2018-07-01T13:24:02Z</time>
      </trkpt>
      <trkpt lat="45.17682" lon="6.08953">
        <ele>1746.4</ele>
        <time>2018-07-01T13:24:05Z</time>
      </trkpt>
      <trkpt lat="45.17659" lon="6.08935">
        <ele>1747.89</ele>
        <time>2018-07-01T13:24:08Z</time>
      </trkpt>
      <trkpt lat="45.17641" lon="6.08933">
        <ele>1749.53</ele>
        <time>2018-07-01T13:24:11Z</time>
      </trkpt>
      <trkpt lat="45.17624" lon="6.08923">
        <ele>1746.23</ele>
        <time>2018-07-01T13:24:17Z</time>
      </trkpt>
      <trkpt lat="45.17607" lon="6.08908">
        <ele>1745.17</ele>
        <time>2018-07-01T13:24:20Z</time>
      </trkpt>
      <trkpt lat="45.17592" lon="6.08888">
        <ele>1741.8</ele>
        <time>2018-07-01T13:24:23Z</time>
      </trkpt>
      <trkpt lat="45.1758" lon="6.08868">
        <ele>1736.27</ele>
        <time>2018-07-01T13:24:26Z</time>
      </trkpt>
      <trkpt lat="45.17562" lon="6.08871">
        <ele>1731.07</ele>
        <time>2018-07-01T13:24:29Z</time>
      </trkpt>
      <trkpt lat="45.17546" lon="6.08885">
        <ele>1726.8</ele>
        <time>2018-07-01T13:24:34Z</time>
      </trkpt>
      <trkpt lat="45.17528" lon="6.08891">
        <ele>1725.72</ele>
        <time>2018-07-01T13:24:38Z</time>
      </trkpt>
      <trkpt lat="45.1751" lon="6.08885">
        <ele>1724.1</ele>
        <time>2018-07-01T13:24:42Z</time>
      </trkpt>
      <trkpt lat="45.17489" lon="6.08883">
        <ele>1721.82</ele>
        <time>2018-07-01T13:24:46Z</time>
      </trkpt>
      <trkpt lat="45.17468" lon="6.08876">
        <ele>1718.16</ele>
        <time>2018-07-01T13:24:49Z</time>
      </trkpt>
      <trkpt lat="45.17451" lon="6.08871">
        <ele>1713.28</ele>
        <time>2018-07-01T13:24:51Z</time>
      </trkpt>
      <trkpt lat="45.1743" lon="6.08863">
        <ele>1712.75</ele>
        <time>2018-07-01T13:24:56Z</time>
      </trkpt>
      <trkpt lat="45.1744" lon="6.08892">
        <ele>1711.73</ele>
        <time>2018-07-01T13:25:05Z</time>
      </trkpt>
      <trkpt lat="45.17459" lon="6.08904">
        <ele>1710.77</ele>
        <time>2018-07-01T13:25:09Z</time>
      </trkpt>
      <trkpt lat="45.17477" lon="6.0892">
        <ele>1713.49</ele>
        <time>2018-07-01T13:25:12Z</time>
      </trkpt>
      <trkpt lat="45.17494" lon="6.08935">
        <ele>1712.81</ele>
        <time>2018-07-01T13:25:15Z</time>
      </trkpt>
      <trkpt lat="45.17517" lon="6.08951">
        <ele>1714.73</ele>
        <time>2018-07-01T13:25:19Z</time>
      </trkpt>
      <trkpt lat="45.17539" lon="6.08957">
        <ele>1714.9</ele>
        <time>2018-07-01T13:25:22Z</time>
      </trkpt>
      <trkpt lat="45.1756" lon="6.08946">
        <ele>1709.19</ele>
        <time>2018-07-01T13:25:27Z</time>
      </trkpt>
      <trkpt lat="45.17578" lon="6.08973">
        <ele>1706.79</ele>
        <time>2018-07-01T13:25:30Z</time>
      </trkpt>
      <trkpt lat="45.17587" lon="6.09005">
        <ele>1702.75</ele>
        <time>2018-07-01T13:25:35Z</time>
      </trkpt>
      <trkpt lat="45.17592" lon="6.0903">
        <ele>1702.93</ele>
        <time>2018-07-01T13:25:39Z</time>
      </trkpt>
      <trkpt lat="45.1761" lon="6.09047">
        <ele>1700.98</ele>
        <time>2018-07-01T13:25:43Z</time>
      </trkpt>
      <trkpt lat="45.17632" lon="6.09038">
        <ele>1700.38</ele>
        <time>2018-07-01T13:25:50Z</time>
      </trkpt>
      <trkpt lat="45.17647" lon="6.09065">
        <ele>1697.38</ele>
        <time>2018-07-01T13:25:53Z</time>
      </trkpt>
      <trkpt lat="45.17658" lon="6.09089">
        <ele>1694.02</ele>
        <time>2018-07-01T13:25:58Z</time>
      </trkpt>
      <trkpt lat="45.17669" lon="6.0911">
        <ele>1694.54</ele>
        <time>2018-07-01T13:26:01Z</time>
      </trkpt>
      <trkpt lat="45.1768" lon="6.09132">
        <ele>1692.76</ele>
        <time>2018-07-01T13:26:04Z</time>
      </trkpt>
      <trkpt lat="45.17699" lon="6.09153">
        <ele>1688.96</ele>
        <time>2018-07-01T13:26:08Z</time>
      </trkpt>
      <trkpt lat="45.17711" lon="6.09179">
        <ele>1683.84</ele>
        <time>2018-07-01T13:26:12Z</time>
      </trkpt>
      <trkpt lat="45.17719" lon="6.09209">
        <ele>1685.34</ele>
        <time>2018-07-01T13:26:15Z</time>
      </trkpt>
      <trkpt lat="45.17718" lon="6.09238">
        <ele>1679.8</ele>
        <time>2018-07-01T13:26:20Z</time>
      </trkpt>
      <trkpt lat="45.17699" lon="6.09223">
        <ele>1662.84</ele>
        <time>2018-07-01T13:26:39Z</time>
      </trkpt>
      <trkpt lat="45.17686" lon="6.09195">
        <ele>1662.75</ele>
        <time>2018-07-01T13:26:45Z</time>
      </trkpt>
      <trkpt lat="45.17668" lon="6.09178">
        <ele>1661.74</ele>
        <time>2018-07-01T13:26:49Z</time>
      </trkpt>
      <trkpt lat="45.17651" lon="6.09163">
        <ele>1661.74</ele>
        <time>2018-07-01T13:26:51Z</time>
      </trkpt>
      <trkpt lat="45.17633" lon="6.09145">
        <ele>1661.74</ele>
        <time>2018-07-01T13:26:54Z</time>
      </trkpt>
      <trkpt lat="45.17615" lon="6.09139">
        <ele>1657.77</ele>
        <time>2018-07-01T13:26:57Z</time>
      </trkpt>
      <trkpt lat="45.17597" lon="6.09126">
        <ele>1653.06</ele>
        <time>2018-07-01T13:27:02Z</time>
      </trkpt>
      <trkpt lat="45.17576" lon="6.09124">
        <ele>1653.13</ele>
        <time>2018-07-01T13:27:05Z</time>
      </trkpt>
      <trkpt lat="45.17558" lon="6.09112">
        <ele>1649.22</ele>
        <time>2018-07-01T13:27:09Z</time>
      </trkpt>
      <trkpt lat="45.17542" lon="6.09099">
        <ele>1644.04</ele>
        <time>2018-07-01T13:27:12Z</time>
      </trkpt>
      <trkpt lat="45.17522" lon="6.09086">
        <ele>1644.9</ele>
        <time>2018-07-01T13:27:15Z</time>
      </trkpt>
      <trkpt lat="45.175" lon="6.09082">
        <ele>1642.56</ele>
        <time>2018-07-01T13:27:20Z</time>
      </trkpt>
      <trkpt lat="45.1748" lon="6.09081">
        <ele>1643.06</ele>
        <time>2018-07-01T13:27:23Z</time>
      </trkpt>
      <trkpt lat="45.17462" lon="6.09089">
        <ele>1641.79</ele>
        <time>2018-07-01T13:27:25Z</time>
      </trkpt>
      <trkpt lat="45.17441" lon="6.09104">
        <ele>1638.22</ele>
        <time>2018-07-01T13:27:28Z</time>
      </trkpt>
      <trkpt lat="45.17422" lon="6.09107">
        <ele>1634.77</ele>
        <time>2018-07-01T13:27:31Z</time>
      </trkpt>
      <trkpt lat="45.17404" lon="6.09113">
        <ele>1632.95</ele>
        <time>2018-07-01T13:27:34Z</time>
      </trkpt>
      <trkpt lat="45.17385" lon="6.09117">
        <ele>1631.78</ele>
        <time>2018-07-01T13:27:37Z</time>
      </trkpt>
      <trkpt lat="45.17366" lon="6.09121">
        <ele>1631.61</ele>
        <time>2018-07-01T13:27:40Z</time>
      </trkpt>
      <trkpt lat="45.17342" lon="6.09119">
        <ele>1627.82</ele>
        <time>2018-07-01T13:27:45Z</time>
      </trkpt>
      <trkpt lat="45.17324" lon="6.09101">
        <ele>1627.95</ele>
        <time>2018-07-01T13:27:49Z</time>
      </trkpt>
      <trkpt lat="45.17311" lon="6.09074">
        <ele>1625.78</ele>
        <time>2018-07-01T13:27:53Z</time>
      </trkpt>
      <trkpt lat="45.17288" lon="6.09059">
        <ele>1623.02</ele>
        <time>2018-07-01T13:27:56Z</time>
      </trkpt>
      <trkpt lat="45.17268" lon="6.0905">
        <ele>1619</ele>
        <time>2018-07-01T13:27:59Z</time>
      </trkpt>
      <trkpt lat="45.17247" lon="6.0904">
        <ele>1615.59</ele>
        <time>2018-07-01T13:28:03Z</time>
      </trkpt>
      <trkpt lat="45.17232" lon="6.09024">
        <ele>1615.87</ele>
        <time>2018-07-01T13:28:06Z</time>
      </trkpt>
      <trkpt lat="45.17219" lon="6.09044">
        <ele>1619.13</ele>
        <time>2018-07-01T13:28:12Z</time>
      </trkpt>
      <trkpt lat="45.17233" lon="6.09061">
        <ele>1616.18</ele>
        <time>2018-07-01T13:28:15Z</time>
      </trkpt>
      <trkpt lat="45.17248" lon="6.09078">
        <ele>1616.74</ele>
        <time>2018-07-01T13:28:18Z</time>
      </trkpt>
      <trkpt lat="45.17269" lon="6.09096">
        <ele>1615.94</ele>
        <time>2018-07-01T13:28:21Z</time>
      </trkpt>
      <trkpt lat="45.17286" lon="6.09115">
        <ele>1615.58</ele>
        <time>2018-07-01T13:28:24Z</time>
      </trkpt>
      <trkpt lat="45.17292" lon="6.0914">
        <ele>1615.73</ele>
        <time>2018-07-01T13:28:28Z</time>
      </trkpt>
      <trkpt lat="45.17284" lon="6.09169">
        <ele>1616.54</ele>
        <time>2018-07-01T13:28:31Z</time>
      </trkpt>
      <trkpt lat="45.17273" lon="6.09197">
        <ele>1612.06</ele>
        <time>2018-07-01T13:28:35Z</time>
      </trkpt>
      <trkpt lat="45.17292" lon="6.09211">
        <ele>1606.98</ele>
        <time>2018-07-01T13:28:40Z</time>
      </trkpt>
      <trkpt lat="45.17315" lon="6.09202">
        <ele>1603.99</ele>
        <time>2018-07-01T13:28:43Z</time>
      </trkpt>
      <trkpt lat="45.17333" lon="6.09209">
        <ele>1600.39</ele>
        <time>2018-07-01T13:28:45Z</time>
      </trkpt>
      <trkpt lat="45.17351" lon="6.09213">
        <ele>1601.73</ele>
        <time>2018-07-01T13:28:48Z</time>
      </trkpt>
      <trkpt lat="45.17368" lon="6.0923">
        <ele>1598.99</ele>
        <time>2018-07-01T13:28:51Z</time>
      </trkpt>
      <trkpt lat="45.17381" lon="6.09259">
        <ele>1595.19</ele>
        <time>2018-07-01T13:28:54Z</time>
      </trkpt>
      <trkpt lat="45.17385" lon="6.09286">
        <ele>1592.95</ele>
        <time>2018-07-01T13:28:57Z</time>
      </trkpt>
      <trkpt lat="45.17384" lon="6.09314">
        <ele>1589.83</ele>
        <time>2018-07-01T13:29:00Z</time>
      </trkpt>
      <trkpt lat="45.17393" lon="6.09338">
        <ele>1584.96</ele>
        <time>2018-07-01T13:29:04Z</time>
      </trkpt>
      <trkpt lat="45.17395" lon="6.09367">
        <ele>1580.99</ele>
        <time>2018-07-01T13:29:09Z</time>
      </trkpt>
      <trkpt lat="45.1738" lon="6.09352">
        <ele>1580.98</ele>
        <time>2018-07-01T13:29:15Z</time>
      </trkpt>
      <trkpt lat="45.17366" lon="6.09331">
        <ele>1577.79</ele>
        <time>2018-07-01T13:29:19Z</time>
      </trkpt>
      <trkpt lat="45.17352" lon="6.09308">
        <ele>1577.1</ele>
        <time>2018-07-01T13:29:21Z</time>
      </trkpt>
      <trkpt lat="45.17328" lon="6.09279">
        <ele>1569.4</ele>
        <time>2018-07-01T13:29:23Z</time>
      </trkpt>
      <trkpt lat="45.17307" lon="6.09269">
        <ele>1566.71</ele>
        <time>2018-07-01T13:29:27Z</time>
      </trkpt>
      <trkpt lat="45.17288" lon="6.09279">
        <ele>1566.58</ele>
        <time>2018-07-01T13:29:31Z</time>
      </trkpt>
      <trkpt lat="45.17271" lon="6.09293">
        <ele>1564.82</ele>
        <time>2018-07-01T13:29:34Z</time>
      </trkpt>
      <trkpt lat="45.17247" lon="6.09302">
        <ele>1562.92</ele>
        <time>2018-07-01T13:29:38Z</time>
      </trkpt>
      <trkpt lat="45.17229" lon="6.09282">
        <ele>1559.75</ele>
        <time>2018-07-01T13:29:42Z</time>
      </trkpt>
      <trkpt lat="45.17207" lon="6.09269">
        <ele>1558.08</ele>
        <time>2018-07-01T13:29:45Z</time>
      </trkpt>
      <trkpt lat="45.17189" lon="6.0926">
        <ele>1557.58</ele>
        <time>2018-07-01T13:29:48Z</time>
      </trkpt>
      <trkpt lat="45.17174" lon="6.09244">
        <ele>1553.19</ele>
        <time>2018-07-01T13:29:53Z</time>
      </trkpt>
      <trkpt lat="45.17182" lon="6.09221">
        <ele>1548.83</ele>
        <time>2018-07-01T13:29:57Z</time>
      </trkpt>
      <trkpt lat="45.17172" lon="6.092">
        <ele>1544.94</ele>
        <time>2018-07-01T13:30:04Z</time>
      </trkpt>
      <trkpt lat="45.1716" lon="6.09224">
        <ele>1541.16</ele>
        <time>2018-07-01T13:30:08Z</time>
      </trkpt>
      <trkpt lat="45.17152" lon="6.09246">
        <ele>1539.02</ele>
        <time>2018-07-01T13:30:11Z</time>
      </trkpt>
      <trkpt lat="45.17163" lon="6.09271">
        <ele>1532.74</ele>
        <time>2018-07-01T13:30:17Z</time>
      </trkpt>
      <trkpt lat="45.17179" lon="6.09284">
        <ele>1532.9</ele>
        <time>2018-07-01T13:30:21Z</time>
      </trkpt>
      <trkpt lat="45.17196" lon="6.09299">
        <ele>1531.94</ele>
        <time>2018-07-01T13:30:25Z</time>
      </trkpt>
      <trkpt lat="45.17208" lon="6.09322">
        <ele>1530.98</ele>
        <time>2018-07-01T13:30:29Z</time>
      </trkpt>
      <trkpt lat="45.17225" lon="6.09339">
        <ele>1527.96</ele>
        <time>2018-07-01T13:30:33Z</time>
      </trkpt>
      <trkpt lat="45.17204" lon="6.09342">
        <ele>1524.73</ele>
        <time>2018-07-01T13:30:45Z</time>
      </trkpt>
      <trkpt lat="45.17184" lon="6.09328">
        <ele>1522.21</ele>
        <time>2018-07-01T13:30:48Z</time>
      </trkpt>
      <trkpt lat="45.1716" lon="6.0931">
        <ele>1518.13</ele>
        <time>2018-07-01T13:30:51Z</time>
      </trkpt>
      <trkpt lat="45.17138" lon="6.09296">
        <ele>1516.78</ele>
        <time>2018-07-01T13:30:54Z</time>
      </trkpt>
      <trkpt lat="45.17115" lon="6.0928">
        <ele>1511.24</ele>
        <time>2018-07-01T13:30:57Z</time>
      </trkpt>
      <trkpt lat="45.17097" lon="6.09264">
        <ele>1508.03</ele>
        <time>2018-07-01T13:31:00Z</time>
      </trkpt>
      <trkpt lat="45.17086" lon="6.09233">
        <ele>1494.46</ele>
        <time>2018-07-01T13:31:04Z</time>
      </trkpt>
      <trkpt lat="45.17076" lon="6.09209">
        <ele>1485.04</ele>
        <time>2018-07-01T13:31:07Z</time>
      </trkpt>
      <trkpt lat="45.17061" lon="6.09196">
        <ele>1484.11</ele>
        <time>2018-07-01T13:31:09Z</time>
      </trkpt>
      <trkpt lat="45.17043" lon="6.0918">
        <ele>1483.52</ele>
        <time>2018-07-01T13:31:12Z</time>
      </trkpt>
      <trkpt lat="45.17027" lon="6.09161">
        <ele>1480.99</ele>
        <time>2018-07-01T13:31:15Z</time>
      </trkpt>
      <trkpt lat="45.17009" lon="6.09136">
        <ele>1476.87</ele>
        <time>2018-07-01T13:31:18Z</time>
      </trkpt>
      <trkpt lat="45.16998" lon="6.09114">
        <ele>1476.55</ele>
        <time>2018-07-01T13:31:21Z</time>
      </trkpt>
      <trkpt lat="45.17" lon="6.09152">
        <ele>1476.93</ele>
        <time>2018-07-01T13:31:28Z</time>
      </trkpt>
      <trkpt lat="45.17013" lon="6.0919">
        <ele>1475.94</ele>
        <time>2018-07-01T13:31:31Z</time>
      </trkpt>
      <trkpt lat="45.1702" lon="6.09216">
        <ele>1476.55</ele>
        <time>2018-07-01T13:31:33Z</time>
      </trkpt>
      <trkpt lat="45.17028" lon="6.09253">
        <ele>1474.79</ele>
        <time>2018-07-01T13:31:36Z</time>
      </trkpt>
      <trkpt lat="45.17023" lon="6.09282">
        <ele>1474.58</ele>
        <time>2018-07-01T13:31:39Z</time>
      </trkpt>
      <trkpt lat="45.17012" lon="6.09308">
        <ele>1470.04</ele>
        <time>2018-07-01T13:31:42Z</time>
      </trkpt>
      <trkpt lat="45.17006" lon="6.09337">
        <ele>1466.99</ele>
        <time>2018-07-01T13:31:45Z</time>
      </trkpt>
      <trkpt lat="45.17019" lon="6.09364">
        <ele>1463.22</ele>
        <time>2018-07-01T13:31:48Z</time>
      </trkpt>
      <trkpt lat="45.1704" lon="6.09379">
        <ele>1462.78</ele>
        <time>2018-07-01T13:31:51Z</time>
      </trkpt>
      <trkpt lat="45.17059" lon="6.09391">
        <ele>1459.8</ele>
        <time>2018-07-01T13:31:54Z</time>
      </trkpt>
      <trkpt lat="45.1707" lon="6.09411">
        <ele>1456.83</ele>
        <time>2018-07-01T13:31:57Z</time>
      </trkpt>
      <trkpt lat="45.17072" lon="6.09438">
        <ele>1453.57</ele>
        <time>2018-07-01T13:32:00Z</time>
      </trkpt>
      <trkpt lat="45.17069" lon="6.09472">
        <ele>1454.7</ele>
        <time>2018-07-01T13:32:03Z</time>
      </trkpt>
      <trkpt lat="45.17067" lon="6.09507">
        <ele>1453.75</ele>
        <time>2018-07-01T13:32:06Z</time>
      </trkpt>
      <trkpt lat="45.17067" lon="6.09544">
        <ele>1453.55</ele>
        <time>2018-07-01T13:32:09Z</time>
      </trkpt>
      <trkpt lat="45.1707" lon="6.09571">
        <ele>1451.82</ele>
        <time>2018-07-01T13:32:12Z</time>
      </trkpt>
      <trkpt lat="45.17074" lon="6.09597">
        <ele>1446.99</ele>
        <time>2018-07-01T13:32:16Z</time>
      </trkpt>
      <trkpt lat="45.17055" lon="6.09601">
        <ele>1436.99</ele>
        <time>2018-07-01T13:32:22Z</time>
      </trkpt>
      <trkpt lat="45.17043" lon="6.09574">
        <ele>1435.81</ele>
        <time>2018-07-01T13:32:25Z</time>
      </trkpt>
      <trkpt lat="45.1703" lon="6.09544">
        <ele>1433.6</ele>
        <time>2018-07-01T13:32:28Z</time>
      </trkpt>
      <trkpt lat="45.17013" lon="6.09519">
        <ele>1432.59</ele>
        <time>2018-07-01T13:32:31Z</time>
      </trkpt>
      <trkpt lat="45.16997" lon="6.095">
        <ele>1431.93</ele>
        <time>2018-07-01T13:32:33Z</time>
      </trkpt>
      <trkpt lat="45.16981" lon="6.09485">
        <ele>1430.95</ele>
        <time>2018-07-01T13:32:35Z</time>
      </trkpt>
      <trkpt lat="45.16963" lon="6.09472">
        <ele>1429.95</ele>
        <time>2018-07-01T13:32:37Z</time>
      </trkpt>
      <trkpt lat="45.16944" lon="6.09463">
        <ele>1430.55</ele>
        <time>2018-07-01T13:32:39Z</time>
      </trkpt>
      <trkpt lat="45.16925" lon="6.09454">
        <ele>1429.29</ele>
        <time>2018-07-01T13:32:41Z</time>
      </trkpt>
      <trkpt lat="45.16906" lon="6.09447">
        <ele>1428.76</ele>
        <time>2018-07-01T13:32:43Z</time>
      </trkpt>
      <trkpt lat="45.16885" lon="6.09441">
        <ele>1421.54</ele>
        <time>2018-07-01T13:32:45Z</time>
      </trkpt>
      <trkpt lat="45.16865" lon="6.09433">
        <ele>1419.97</ele>
        <time>2018-07-01T13:32:47Z</time>
      </trkpt>
      <trkpt lat="45.16841" lon="6.09424">
        <ele>1414.24</ele>
        <time>2018-07-01T13:32:50Z</time>
      </trkpt>
      <trkpt lat="45.16821" lon="6.09422">
        <ele>1409</ele>
        <time>2018-07-01T13:32:54Z</time>
      </trkpt>
      <trkpt lat="45.16836" lon="6.09439">
        <ele>1404.38</ele>
        <time>2018-07-01T13:32:59Z</time>
      </trkpt>
      <trkpt lat="45.16849" lon="6.09458">
        <ele>1403.54</ele>
        <time>2018-07-01T13:33:05Z</time>
      </trkpt>
    </trkseg>
  </trk>
</gpx>